<?xml version="1.0" encoding="UTF-8" standalone="no" ?>
<gpx xmlns="http://www.topografix.com/GPX/1/1" xmlns:xsi="http://www.w3.org/2001/XMLSchema-instance" xsi:schemaLocation="http://www.topografix.com/GPX/1/1 http://www.topografix.com/GPX/1/1/gpx.xsd" version="1.1" creator="VisuGPX - https://www.visugpx.com">
  <metadata>
    <name>Parcours Villamblard - Grignols</name>
    <desc><![CDATA[Trajet n°3 pour les relais à 4 et relais à 2 
]]></desc>
  </metadata>
  <trk>
    <name><![CDATA[Track 2013-03-04  12:55am]]></name>
    <trkseg>
      <trkpt lat="45.02285" lon="0.54067">
        <ele>137.254883</ele>
        <time>2013-03-04T12:55:35Z</time>
      </trkpt>
      <trkpt lat="45.02286" lon="0.54061">
        <ele>137.434448</ele>
        <time>2013-03-04T12:55:40Z</time>
      </trkpt>
      <trkpt lat="45.02296" lon="0.54062">
        <ele>137.572876</ele>
        <time>2013-03-04T12:55:42Z</time>
      </trkpt>
      <trkpt lat="45.02303" lon="0.54063">
        <ele>137.688782</ele>
        <time>2013-03-04T12:55:44Z</time>
      </trkpt>
      <trkpt lat="45.02312" lon="0.54065">
        <ele>137.828125</ele>
        <time>2013-03-04T12:55:46Z</time>
      </trkpt>
      <trkpt lat="45.0232" lon="0.54066">
        <ele>137.959961</ele>
        <time>2013-03-04T12:55:48Z</time>
      </trkpt>
      <trkpt lat="45.02329" lon="0.5407">
        <ele>138.078308</ele>
        <time>2013-03-04T12:55:50Z</time>
      </trkpt>
      <trkpt lat="45.02339" lon="0.54078">
        <ele>138.437988</ele>
        <time>2013-03-04T12:55:52Z</time>
      </trkpt>
      <trkpt lat="45.02348" lon="0.54086">
        <ele>138.973694</ele>
        <time>2013-03-04T12:55:54Z</time>
      </trkpt>
      <trkpt lat="45.02355" lon="0.54092">
        <ele>139.390198</ele>
        <time>2013-03-04T12:55:56Z</time>
      </trkpt>
      <trkpt lat="45.02363" lon="0.54098">
        <ele>139.857849</ele>
        <time>2013-03-04T12:55:58Z</time>
      </trkpt>
      <trkpt lat="45.02371" lon="0.54102">
        <ele>140.258606</ele>
        <time>2013-03-04T12:56:00Z</time>
      </trkpt>
      <trkpt lat="45.02377" lon="0.54104">
        <ele>140.619873</ele>
        <time>2013-03-04T12:56:02Z</time>
      </trkpt>
      <trkpt lat="45.02382" lon="0.54103">
        <ele>140.964478</ele>
        <time>2013-03-04T12:56:04Z</time>
      </trkpt>
      <trkpt lat="45.02387" lon="0.54104">
        <ele>141.316101</ele>
        <time>2013-03-04T12:56:06Z</time>
      </trkpt>
      <trkpt lat="45.02394" lon="0.54107">
        <ele>141.654785</ele>
        <time>2013-03-04T12:56:08Z</time>
      </trkpt>
      <trkpt lat="45.02401" lon="0.54112">
        <ele>141.949829</ele>
        <time>2013-03-04T12:56:10Z</time>
      </trkpt>
      <trkpt lat="45.02407" lon="0.54115">
        <ele>142.243103</ele>
        <time>2013-03-04T12:56:12Z</time>
      </trkpt>
      <trkpt lat="45.02412" lon="0.54117">
        <ele>142.500061</ele>
        <time>2013-03-04T12:56:14Z</time>
      </trkpt>
      <trkpt lat="45.02418" lon="0.5412">
        <ele>142.815674</ele>
        <time>2013-03-04T12:56:16Z</time>
      </trkpt>
      <trkpt lat="45.02422" lon="0.54124">
        <ele>143.303894</ele>
        <time>2013-03-04T12:56:18Z</time>
      </trkpt>
      <trkpt lat="45.02427" lon="0.54127">
        <ele>143.810791</ele>
        <time>2013-03-04T12:56:20Z</time>
      </trkpt>
      <trkpt lat="45.02431" lon="0.54129">
        <ele>144.358826</ele>
        <time>2013-03-04T12:56:22Z</time>
      </trkpt>
      <trkpt lat="45.02436" lon="0.5413">
        <ele>144.918884</ele>
        <time>2013-03-04T12:56:24Z</time>
      </trkpt>
      <trkpt lat="45.02441" lon="0.54131">
        <ele>145.599426</ele>
        <time>2013-03-04T12:56:27Z</time>
      </trkpt>
      <trkpt lat="45.02448" lon="0.54134">
        <ele>146.319885</ele>
        <time>2013-03-04T12:56:30Z</time>
      </trkpt>
      <trkpt lat="45.02452" lon="0.54137">
        <ele>146.824951</ele>
        <time>2013-03-04T12:56:32Z</time>
      </trkpt>
      <trkpt lat="45.02457" lon="0.54139">
        <ele>147.304138</ele>
        <time>2013-03-04T12:56:34Z</time>
      </trkpt>
      <trkpt lat="45.02463" lon="0.54141">
        <ele>148.037842</ele>
        <time>2013-03-04T12:56:37Z</time>
      </trkpt>
      <trkpt lat="45.02469" lon="0.54144">
        <ele>148.56665</ele>
        <time>2013-03-04T12:56:40Z</time>
      </trkpt>
      <trkpt lat="45.02474" lon="0.54147">
        <ele>149.05542</ele>
        <time>2013-03-04T12:56:43Z</time>
      </trkpt>
      <trkpt lat="45.0248" lon="0.54147">
        <ele>149.784302</ele>
        <time>2013-03-04T12:56:46Z</time>
      </trkpt>
      <trkpt lat="45.02486" lon="0.54148">
        <ele>150.513794</ele>
        <time>2013-03-04T12:56:49Z</time>
      </trkpt>
      <trkpt lat="45.02492" lon="0.54149">
        <ele>151.186035</ele>
        <time>2013-03-04T12:56:52Z</time>
      </trkpt>
      <trkpt lat="45.02497" lon="0.5415">
        <ele>151.807983</ele>
        <time>2013-03-04T12:56:55Z</time>
      </trkpt>
      <trkpt lat="45.02502" lon="0.5415">
        <ele>152.372925</ele>
        <time>2013-03-04T12:56:58Z</time>
      </trkpt>
      <trkpt lat="45.02507" lon="0.5415">
        <ele>152.788757</ele>
        <time>2013-03-04T12:57:01Z</time>
      </trkpt>
      <trkpt lat="45.02512" lon="0.54149">
        <ele>153.220886</ele>
        <time>2013-03-04T12:57:04Z</time>
      </trkpt>
      <trkpt lat="45.02519" lon="0.54148">
        <ele>153.824768</ele>
        <time>2013-03-04T12:57:07Z</time>
      </trkpt>
      <trkpt lat="45.02525" lon="0.54146">
        <ele>154.485779</ele>
        <time>2013-03-04T12:57:10Z</time>
      </trkpt>
      <trkpt lat="45.02531" lon="0.54145">
        <ele>155.054688</ele>
        <time>2013-03-04T12:57:13Z</time>
      </trkpt>
      <trkpt lat="45.02536" lon="0.54144">
        <ele>155.575806</ele>
        <time>2013-03-04T12:57:16Z</time>
      </trkpt>
      <trkpt lat="45.0254" lon="0.54143">
        <ele>156.046753</ele>
        <time>2013-03-04T12:57:19Z</time>
      </trkpt>
      <trkpt lat="45.02546" lon="0.54142">
        <ele>156.622986</ele>
        <time>2013-03-04T12:57:22Z</time>
      </trkpt>
      <trkpt lat="45.02552" lon="0.54141">
        <ele>157.181152</ele>
        <time>2013-03-04T12:57:25Z</time>
      </trkpt>
      <trkpt lat="45.02558" lon="0.54141">
        <ele>157.660156</ele>
        <time>2013-03-04T12:57:29Z</time>
      </trkpt>
      <trkpt lat="45.02564" lon="0.5414">
        <ele>158.26001</ele>
        <time>2013-03-04T12:57:32Z</time>
      </trkpt>
      <trkpt lat="45.02569" lon="0.54139">
        <ele>158.743286</ele>
        <time>2013-03-04T12:57:34Z</time>
      </trkpt>
      <trkpt lat="45.02574" lon="0.54139">
        <ele>159.213135</ele>
        <time>2013-03-04T12:57:36Z</time>
      </trkpt>
      <trkpt lat="45.02579" lon="0.54138">
        <ele>159.658875</ele>
        <time>2013-03-04T12:57:38Z</time>
      </trkpt>
      <trkpt lat="45.02584" lon="0.54137">
        <ele>160.214355</ele>
        <time>2013-03-04T12:57:41Z</time>
      </trkpt>
      <trkpt lat="45.02591" lon="0.54136">
        <ele>160.723755</ele>
        <time>2013-03-04T12:57:44Z</time>
      </trkpt>
      <trkpt lat="45.02597" lon="0.54135">
        <ele>161.102783</ele>
        <time>2013-03-04T12:57:46Z</time>
      </trkpt>
      <trkpt lat="45.02602" lon="0.54135">
        <ele>161.362793</ele>
        <time>2013-03-04T12:57:48Z</time>
      </trkpt>
      <trkpt lat="45.02609" lon="0.54135">
        <ele>161.736816</ele>
        <time>2013-03-04T12:57:51Z</time>
      </trkpt>
      <trkpt lat="45.02615" lon="0.54133">
        <ele>162.228394</ele>
        <time>2013-03-04T12:57:53Z</time>
      </trkpt>
      <trkpt lat="45.02622" lon="0.54131">
        <ele>162.776245</ele>
        <time>2013-03-04T12:57:55Z</time>
      </trkpt>
      <trkpt lat="45.02629" lon="0.5413">
        <ele>163.274353</ele>
        <time>2013-03-04T12:57:57Z</time>
      </trkpt>
      <trkpt lat="45.02636" lon="0.54131">
        <ele>163.616882</ele>
        <time>2013-03-04T12:57:59Z</time>
      </trkpt>
      <trkpt lat="45.02642" lon="0.5413">
        <ele>164.044067</ele>
        <time>2013-03-04T12:58:01Z</time>
      </trkpt>
      <trkpt lat="45.02649" lon="0.54129">
        <ele>164.492126</ele>
        <time>2013-03-04T12:58:03Z</time>
      </trkpt>
      <trkpt lat="45.02655" lon="0.54128">
        <ele>164.985291</ele>
        <time>2013-03-04T12:58:05Z</time>
      </trkpt>
      <trkpt lat="45.02662" lon="0.54126">
        <ele>165.545837</ele>
        <time>2013-03-04T12:58:07Z</time>
      </trkpt>
      <trkpt lat="45.02671" lon="0.54126">
        <ele>166.629211</ele>
        <time>2013-03-04T12:58:09Z</time>
      </trkpt>
      <trkpt lat="45.02676" lon="0.54127">
        <ele>167.195557</ele>
        <time>2013-03-04T12:58:10Z</time>
      </trkpt>
      <trkpt lat="45.02684" lon="0.54129">
        <ele>168.260071</ele>
        <time>2013-03-04T12:58:12Z</time>
      </trkpt>
      <trkpt lat="45.0269" lon="0.54129">
        <ele>169.357849</ele>
        <time>2013-03-04T12:58:14Z</time>
      </trkpt>
      <trkpt lat="45.02695" lon="0.54127">
        <ele>170.324524</ele>
        <time>2013-03-04T12:58:16Z</time>
      </trkpt>
      <trkpt lat="45.02699" lon="0.54126">
        <ele>171.195435</ele>
        <time>2013-03-04T12:58:18Z</time>
      </trkpt>
      <trkpt lat="45.02704" lon="0.54124">
        <ele>172.078796</ele>
        <time>2013-03-04T12:58:20Z</time>
      </trkpt>
      <trkpt lat="45.0271" lon="0.54126">
        <ele>172.886963</ele>
        <time>2013-03-04T12:58:23Z</time>
      </trkpt>
      <trkpt lat="45.02716" lon="0.54127">
        <ele>173.730469</ele>
        <time>2013-03-04T12:58:26Z</time>
      </trkpt>
      <trkpt lat="45.02722" lon="0.54128">
        <ele>174.623169</ele>
        <time>2013-03-04T12:58:29Z</time>
      </trkpt>
      <trkpt lat="45.02726" lon="0.54125">
        <ele>175.669922</ele>
        <time>2013-03-04T12:58:32Z</time>
      </trkpt>
      <trkpt lat="45.02733" lon="0.54124">
        <ele>176.840271</ele>
        <time>2013-03-04T12:58:35Z</time>
      </trkpt>
      <trkpt lat="45.02738" lon="0.54123">
        <ele>177.677124</ele>
        <time>2013-03-04T12:58:37Z</time>
      </trkpt>
      <trkpt lat="45.02743" lon="0.54122">
        <ele>178.527405</ele>
        <time>2013-03-04T12:58:39Z</time>
      </trkpt>
      <trkpt lat="45.02747" lon="0.54122">
        <ele>179.31781</ele>
        <time>2013-03-04T12:58:41Z</time>
      </trkpt>
      <trkpt lat="45.02753" lon="0.54121">
        <ele>180.017578</ele>
        <time>2013-03-04T12:58:44Z</time>
      </trkpt>
      <trkpt lat="45.02759" lon="0.5412">
        <ele>180.383789</ele>
        <time>2013-03-04T12:58:47Z</time>
      </trkpt>
      <trkpt lat="45.02764" lon="0.54116">
        <ele>180.957397</ele>
        <time>2013-03-04T12:58:50Z</time>
      </trkpt>
      <trkpt lat="45.02768" lon="0.54112">
        <ele>181.429138</ele>
        <time>2013-03-04T12:58:52Z</time>
      </trkpt>
      <trkpt lat="45.02772" lon="0.5411">
        <ele>181.816101</ele>
        <time>2013-03-04T12:58:54Z</time>
      </trkpt>
      <trkpt lat="45.02778" lon="0.54108">
        <ele>182.258789</ele>
        <time>2013-03-04T12:58:56Z</time>
      </trkpt>
      <trkpt lat="45.02784" lon="0.54105">
        <ele>182.690063</ele>
        <time>2013-03-04T12:58:58Z</time>
      </trkpt>
      <trkpt lat="45.02789" lon="0.54103">
        <ele>183.083618</ele>
        <time>2013-03-04T12:59:00Z</time>
      </trkpt>
      <trkpt lat="45.02795" lon="0.54101">
        <ele>183.501282</ele>
        <time>2013-03-04T12:59:02Z</time>
      </trkpt>
      <trkpt lat="45.028" lon="0.54097">
        <ele>183.922363</ele>
        <time>2013-03-04T12:59:04Z</time>
      </trkpt>
      <trkpt lat="45.02806" lon="0.54095">
        <ele>184.293396</ele>
        <time>2013-03-04T12:59:06Z</time>
      </trkpt>
      <trkpt lat="45.02811" lon="0.54096">
        <ele>184.482544</ele>
        <time>2013-03-04T12:59:08Z</time>
      </trkpt>
      <trkpt lat="45.02817" lon="0.54097">
        <ele>184.621399</ele>
        <time>2013-03-04T12:59:10Z</time>
      </trkpt>
      <trkpt lat="45.02821" lon="0.54098">
        <ele>184.795776</ele>
        <time>2013-03-04T12:59:12Z</time>
      </trkpt>
      <trkpt lat="45.02826" lon="0.541">
        <ele>184.923401</ele>
        <time>2013-03-04T12:59:14Z</time>
      </trkpt>
      <trkpt lat="45.02831" lon="0.541">
        <ele>185.10376</ele>
        <time>2013-03-04T12:59:16Z</time>
      </trkpt>
      <trkpt lat="45.02838" lon="0.54099">
        <ele>185.173584</ele>
        <time>2013-03-04T12:59:19Z</time>
      </trkpt>
      <trkpt lat="45.02843" lon="0.54101">
        <ele>185.016235</ele>
        <time>2013-03-04T12:59:21Z</time>
      </trkpt>
      <trkpt lat="45.02847" lon="0.54103">
        <ele>184.898132</ele>
        <time>2013-03-04T12:59:23Z</time>
      </trkpt>
      <trkpt lat="45.02853" lon="0.54104">
        <ele>184.836365</ele>
        <time>2013-03-04T12:59:26Z</time>
      </trkpt>
      <trkpt lat="45.02859" lon="0.54105">
        <ele>184.766479</ele>
        <time>2013-03-04T12:59:29Z</time>
      </trkpt>
      <trkpt lat="45.02863" lon="0.54106">
        <ele>184.714233</ele>
        <time>2013-03-04T12:59:31Z</time>
      </trkpt>
      <trkpt lat="45.02868" lon="0.54108">
        <ele>184.674866</ele>
        <time>2013-03-04T12:59:33Z</time>
      </trkpt>
      <trkpt lat="45.02873" lon="0.5411">
        <ele>184.663879</ele>
        <time>2013-03-04T12:59:35Z</time>
      </trkpt>
      <trkpt lat="45.02879" lon="0.54113">
        <ele>184.691406</ele>
        <time>2013-03-04T12:59:38Z</time>
      </trkpt>
      <trkpt lat="45.02883" lon="0.54115">
        <ele>184.730591</ele>
        <time>2013-03-04T12:59:40Z</time>
      </trkpt>
      <trkpt lat="45.0289" lon="0.54118">
        <ele>184.836365</ele>
        <time>2013-03-04T12:59:43Z</time>
      </trkpt>
      <trkpt lat="45.02894" lon="0.5412">
        <ele>184.94458</ele>
        <time>2013-03-04T12:59:48Z</time>
      </trkpt>
      <trkpt lat="45.02899" lon="0.54122">
        <ele>185.056519</ele>
        <time>2013-03-04T12:59:52Z</time>
      </trkpt>
      <trkpt lat="45.02903" lon="0.54115">
        <ele>184.820862</ele>
        <time>2013-03-04T12:59:55Z</time>
      </trkpt>
      <trkpt lat="45.02909" lon="0.54113">
        <ele>184.752869</ele>
        <time>2013-03-04T12:59:58Z</time>
      </trkpt>
      <trkpt lat="45.02916" lon="0.54117">
        <ele>184.984924</ele>
        <time>2013-03-04T13:00:01Z</time>
      </trkpt>
      <trkpt lat="45.02922" lon="0.54119">
        <ele>185.255737</ele>
        <time>2013-03-04T13:00:04Z</time>
      </trkpt>
      <trkpt lat="45.02927" lon="0.5412">
        <ele>185.413208</ele>
        <time>2013-03-04T13:00:07Z</time>
      </trkpt>
      <trkpt lat="45.02932" lon="0.5412">
        <ele>185.507263</ele>
        <time>2013-03-04T13:00:09Z</time>
      </trkpt>
      <trkpt lat="45.02938" lon="0.54121">
        <ele>185.67218</ele>
        <time>2013-03-04T13:00:11Z</time>
      </trkpt>
      <trkpt lat="45.02943" lon="0.54123">
        <ele>185.88855</ele>
        <time>2013-03-04T13:00:12Z</time>
      </trkpt>
      <trkpt lat="45.0295" lon="0.54125">
        <ele>186.100281</ele>
        <time>2013-03-04T13:00:14Z</time>
      </trkpt>
      <trkpt lat="45.02955" lon="0.54127">
        <ele>186.287109</ele>
        <time>2013-03-04T13:00:15Z</time>
      </trkpt>
      <trkpt lat="45.02963" lon="0.54127">
        <ele>186.438965</ele>
        <time>2013-03-04T13:00:17Z</time>
      </trkpt>
      <trkpt lat="45.0297" lon="0.54127">
        <ele>186.571045</ele>
        <time>2013-03-04T13:00:19Z</time>
      </trkpt>
      <trkpt lat="45.02979" lon="0.54128">
        <ele>186.759521</ele>
        <time>2013-03-04T13:00:21Z</time>
      </trkpt>
      <trkpt lat="45.02987" lon="0.54129">
        <ele>186.933228</ele>
        <time>2013-03-04T13:00:23Z</time>
      </trkpt>
      <trkpt lat="45.02995" lon="0.54128">
        <ele>187.050293</ele>
        <time>2013-03-04T13:00:25Z</time>
      </trkpt>
      <trkpt lat="45.03003" lon="0.54127">
        <ele>187.4021</ele>
        <time>2013-03-04T13:00:27Z</time>
      </trkpt>
      <trkpt lat="45.03011" lon="0.54125">
        <ele>188.061646</ele>
        <time>2013-03-04T13:00:29Z</time>
      </trkpt>
      <trkpt lat="45.03019" lon="0.54123">
        <ele>188.734497</ele>
        <time>2013-03-04T13:00:31Z</time>
      </trkpt>
      <trkpt lat="45.03027" lon="0.54122">
        <ele>189.52243</ele>
        <time>2013-03-04T13:00:33Z</time>
      </trkpt>
      <trkpt lat="45.03035" lon="0.54121">
        <ele>190.162964</ele>
        <time>2013-03-04T13:00:35Z</time>
      </trkpt>
      <trkpt lat="45.03041" lon="0.54117">
        <ele>190.631439</ele>
        <time>2013-03-04T13:00:37Z</time>
      </trkpt>
      <trkpt lat="45.03046" lon="0.54113">
        <ele>191.031006</ele>
        <time>2013-03-04T13:00:39Z</time>
      </trkpt>
      <trkpt lat="45.03052" lon="0.54112">
        <ele>191.512909</ele>
        <time>2013-03-04T13:00:41Z</time>
      </trkpt>
      <trkpt lat="45.03056" lon="0.54109">
        <ele>191.86557</ele>
        <time>2013-03-04T13:00:43Z</time>
      </trkpt>
      <trkpt lat="45.03061" lon="0.54106">
        <ele>192.235718</ele>
        <time>2013-03-04T13:00:45Z</time>
      </trkpt>
      <trkpt lat="45.03065" lon="0.54102">
        <ele>192.540588</ele>
        <time>2013-03-04T13:00:47Z</time>
      </trkpt>
      <trkpt lat="45.0307" lon="0.54101">
        <ele>193.008423</ele>
        <time>2013-03-04T13:00:49Z</time>
      </trkpt>
      <trkpt lat="45.03074" lon="0.54101">
        <ele>193.497131</ele>
        <time>2013-03-04T13:00:51Z</time>
      </trkpt>
      <trkpt lat="45.0308" lon="0.54097">
        <ele>194.016998</ele>
        <time>2013-03-04T13:00:54Z</time>
      </trkpt>
      <trkpt lat="45.03085" lon="0.54093">
        <ele>194.213837</ele>
        <time>2013-03-04T13:00:56Z</time>
      </trkpt>
      <trkpt lat="45.03089" lon="0.5409">
        <ele>194.06842</ele>
        <time>2013-03-04T13:00:58Z</time>
      </trkpt>
      <trkpt lat="45.03093" lon="0.54086">
        <ele>193.928986</ele>
        <time>2013-03-04T13:01:00Z</time>
      </trkpt>
      <trkpt lat="45.03097" lon="0.54083">
        <ele>193.84729</ele>
        <time>2013-03-04T13:01:02Z</time>
      </trkpt>
      <trkpt lat="45.03101" lon="0.54079">
        <ele>193.850769</ele>
        <time>2013-03-04T13:01:04Z</time>
      </trkpt>
      <trkpt lat="45.03106" lon="0.54076">
        <ele>193.879486</ele>
        <time>2013-03-04T13:01:06Z</time>
      </trkpt>
      <trkpt lat="45.0311" lon="0.54071">
        <ele>193.956848</ele>
        <time>2013-03-04T13:01:08Z</time>
      </trkpt>
      <trkpt lat="45.03113" lon="0.54066">
        <ele>194.098175</ele>
        <time>2013-03-04T13:01:10Z</time>
      </trkpt>
      <trkpt lat="45.03116" lon="0.54061">
        <ele>194.229492</ele>
        <time>2013-03-04T13:01:12Z</time>
      </trkpt>
      <trkpt lat="45.0312" lon="0.54058">
        <ele>194.370056</ele>
        <time>2013-03-04T13:01:14Z</time>
      </trkpt>
      <trkpt lat="45.03124" lon="0.54054">
        <ele>194.555542</ele>
        <time>2013-03-04T13:01:16Z</time>
      </trkpt>
      <trkpt lat="45.03129" lon="0.54048">
        <ele>194.859619</ele>
        <time>2013-03-04T13:01:19Z</time>
      </trkpt>
      <trkpt lat="45.03135" lon="0.54043">
        <ele>195.189087</ele>
        <time>2013-03-04T13:01:22Z</time>
      </trkpt>
      <trkpt lat="45.03139" lon="0.54039">
        <ele>195.465759</ele>
        <time>2013-03-04T13:01:24Z</time>
      </trkpt>
      <trkpt lat="45.03144" lon="0.54036">
        <ele>195.789124</ele>
        <time>2013-03-04T13:01:26Z</time>
      </trkpt>
      <trkpt lat="45.0315" lon="0.54031">
        <ele>196.197876</ele>
        <time>2013-03-04T13:01:28Z</time>
      </trkpt>
      <trkpt lat="45.03155" lon="0.54026">
        <ele>196.676483</ele>
        <time>2013-03-04T13:01:30Z</time>
      </trkpt>
      <trkpt lat="45.03161" lon="0.54022">
        <ele>197.19696</ele>
        <time>2013-03-04T13:01:32Z</time>
      </trkpt>
      <trkpt lat="45.03166" lon="0.54016">
        <ele>197.809692</ele>
        <time>2013-03-04T13:01:34Z</time>
      </trkpt>
      <trkpt lat="45.03171" lon="0.5401">
        <ele>198.151276</ele>
        <time>2013-03-04T13:01:36Z</time>
      </trkpt>
      <trkpt lat="45.03176" lon="0.54005">
        <ele>198.329987</ele>
        <time>2013-03-04T13:01:38Z</time>
      </trkpt>
      <trkpt lat="45.03181" lon="0.54001">
        <ele>198.447906</ele>
        <time>2013-03-04T13:01:40Z</time>
      </trkpt>
      <trkpt lat="45.03187" lon="0.53997">
        <ele>198.474365</ele>
        <time>2013-03-04T13:01:42Z</time>
      </trkpt>
      <trkpt lat="45.03194" lon="0.53992">
        <ele>198.546906</ele>
        <time>2013-03-04T13:01:44Z</time>
      </trkpt>
      <trkpt lat="45.03202" lon="0.53986">
        <ele>198.709412</ele>
        <time>2013-03-04T13:01:46Z</time>
      </trkpt>
      <trkpt lat="45.03209" lon="0.53981">
        <ele>198.838257</ele>
        <time>2013-03-04T13:01:48Z</time>
      </trkpt>
      <trkpt lat="45.03218" lon="0.53974">
        <ele>199.118988</ele>
        <time>2013-03-04T13:01:50Z</time>
      </trkpt>
      <trkpt lat="45.03222" lon="0.5397">
        <ele>199.313263</ele>
        <time>2013-03-04T13:01:51Z</time>
      </trkpt>
      <trkpt lat="45.03229" lon="0.53962">
        <ele>199.682953</ele>
        <time>2013-03-04T13:01:53Z</time>
      </trkpt>
      <trkpt lat="45.03237" lon="0.53956">
        <ele>199.966187</ele>
        <time>2013-03-04T13:01:55Z</time>
      </trkpt>
      <trkpt lat="45.03242" lon="0.53954">
        <ele>200.074646</ele>
        <time>2013-03-04T13:01:56Z</time>
      </trkpt>
      <trkpt lat="45.03253" lon="0.53952">
        <ele>200.170319</ele>
        <time>2013-03-04T13:01:58Z</time>
      </trkpt>
      <trkpt lat="45.03258" lon="0.53948">
        <ele>200.855682</ele>
        <time>2013-03-04T13:02:00Z</time>
      </trkpt>
      <trkpt lat="45.03266" lon="0.53943">
        <ele>201.67514</ele>
        <time>2013-03-04T13:02:02Z</time>
      </trkpt>
      <trkpt lat="45.03272" lon="0.53941">
        <ele>202.186859</ele>
        <time>2013-03-04T13:02:04Z</time>
      </trkpt>
      <trkpt lat="45.03276" lon="0.53934">
        <ele>202.95047</ele>
        <time>2013-03-04T13:02:06Z</time>
      </trkpt>
      <trkpt lat="45.03281" lon="0.53932">
        <ele>203.384491</ele>
        <time>2013-03-04T13:02:08Z</time>
      </trkpt>
      <trkpt lat="45.03288" lon="0.5393">
        <ele>203.819946</ele>
        <time>2013-03-04T13:02:10Z</time>
      </trkpt>
      <trkpt lat="45.03294" lon="0.5393">
        <ele>204.183533</ele>
        <time>2013-03-04T13:02:12Z</time>
      </trkpt>
      <trkpt lat="45.033" lon="0.5393">
        <ele>204.489807</ele>
        <time>2013-03-04T13:02:14Z</time>
      </trkpt>
      <trkpt lat="45.03305" lon="0.53929">
        <ele>204.816772</ele>
        <time>2013-03-04T13:02:16Z</time>
      </trkpt>
      <trkpt lat="45.03311" lon="0.53928">
        <ele>205.189056</ele>
        <time>2013-03-04T13:02:18Z</time>
      </trkpt>
      <trkpt lat="45.03318" lon="0.53928">
        <ele>205.497772</ele>
        <time>2013-03-04T13:02:20Z</time>
      </trkpt>
      <trkpt lat="45.03325" lon="0.53929">
        <ele>205.830444</ele>
        <time>2013-03-04T13:02:22Z</time>
      </trkpt>
      <trkpt lat="45.03333" lon="0.53931">
        <ele>206.157806</ele>
        <time>2013-03-04T13:02:24Z</time>
      </trkpt>
      <trkpt lat="45.03341" lon="0.53931">
        <ele>206.675537</ele>
        <time>2013-03-04T13:02:26Z</time>
      </trkpt>
      <trkpt lat="45.03348" lon="0.53931">
        <ele>207.15155</ele>
        <time>2013-03-04T13:02:28Z</time>
      </trkpt>
      <trkpt lat="45.03354" lon="0.53931">
        <ele>207.594879</ele>
        <time>2013-03-04T13:02:30Z</time>
      </trkpt>
      <trkpt lat="45.0336" lon="0.5393">
        <ele>208.018738</ele>
        <time>2013-03-04T13:02:32Z</time>
      </trkpt>
      <trkpt lat="45.03365" lon="0.53928">
        <ele>208.42453</ele>
        <time>2013-03-04T13:02:34Z</time>
      </trkpt>
      <trkpt lat="45.0337" lon="0.53927">
        <ele>208.8125</ele>
        <time>2013-03-04T13:02:36Z</time>
      </trkpt>
      <trkpt lat="45.03375" lon="0.53925">
        <ele>209.186707</ele>
        <time>2013-03-04T13:02:38Z</time>
      </trkpt>
      <trkpt lat="45.03382" lon="0.53924">
        <ele>209.678101</ele>
        <time>2013-03-04T13:02:40Z</time>
      </trkpt>
      <trkpt lat="45.03388" lon="0.53924">
        <ele>210.075623</ele>
        <time>2013-03-04T13:02:42Z</time>
      </trkpt>
      <trkpt lat="45.03395" lon="0.53925">
        <ele>210.479248</ele>
        <time>2013-03-04T13:02:44Z</time>
      </trkpt>
      <trkpt lat="45.034" lon="0.53925">
        <ele>210.834839</ele>
        <time>2013-03-04T13:02:46Z</time>
      </trkpt>
      <trkpt lat="45.03405" lon="0.53924">
        <ele>211.179688</ele>
        <time>2013-03-04T13:02:48Z</time>
      </trkpt>
      <trkpt lat="45.0341" lon="0.53922">
        <ele>211.540771</ele>
        <time>2013-03-04T13:02:50Z</time>
      </trkpt>
      <trkpt lat="45.03416" lon="0.53918">
        <ele>211.921906</ele>
        <time>2013-03-04T13:02:52Z</time>
      </trkpt>
      <trkpt lat="45.03421" lon="0.53916">
        <ele>211.963745</ele>
        <time>2013-03-04T13:02:54Z</time>
      </trkpt>
      <trkpt lat="45.03426" lon="0.53917">
        <ele>211.891174</ele>
        <time>2013-03-04T13:02:56Z</time>
      </trkpt>
      <trkpt lat="45.03434" lon="0.53919">
        <ele>211.779297</ele>
        <time>2013-03-04T13:02:58Z</time>
      </trkpt>
      <trkpt lat="45.03441" lon="0.53923">
        <ele>211.670807</ele>
        <time>2013-03-04T13:03:00Z</time>
      </trkpt>
      <trkpt lat="45.03448" lon="0.53928">
        <ele>211.58847</ele>
        <time>2013-03-04T13:03:02Z</time>
      </trkpt>
      <trkpt lat="45.03453" lon="0.53933">
        <ele>211.53653</ele>
        <time>2013-03-04T13:03:04Z</time>
      </trkpt>
      <trkpt lat="45.03459" lon="0.53935">
        <ele>211.497498</ele>
        <time>2013-03-04T13:03:06Z</time>
      </trkpt>
      <trkpt lat="45.03465" lon="0.53937">
        <ele>211.45755</ele>
        <time>2013-03-04T13:03:08Z</time>
      </trkpt>
      <trkpt lat="45.0347" lon="0.53938">
        <ele>211.433136</ele>
        <time>2013-03-04T13:03:09Z</time>
      </trkpt>
      <trkpt lat="45.03479" lon="0.53941">
        <ele>211.397369</ele>
        <time>2013-03-04T13:03:11Z</time>
      </trkpt>
      <trkpt lat="45.03487" lon="0.53942">
        <ele>211.370483</ele>
        <time>2013-03-04T13:03:13Z</time>
      </trkpt>
      <trkpt lat="45.03495" lon="0.53943">
        <ele>211.334778</ele>
        <time>2013-03-04T13:03:15Z</time>
      </trkpt>
      <trkpt lat="45.03503" lon="0.53943">
        <ele>211.115479</ele>
        <time>2013-03-04T13:03:17Z</time>
      </trkpt>
      <trkpt lat="45.03511" lon="0.53943">
        <ele>210.64389</ele>
        <time>2013-03-04T13:03:19Z</time>
      </trkpt>
      <trkpt lat="45.03516" lon="0.53945">
        <ele>210.347534</ele>
        <time>2013-03-04T13:03:20Z</time>
      </trkpt>
      <trkpt lat="45.03524" lon="0.53949">
        <ele>209.809662</ele>
        <time>2013-03-04T13:03:22Z</time>
      </trkpt>
      <trkpt lat="45.03536" lon="0.53965">
        <ele>209.156738</ele>
        <time>2013-03-04T13:03:23Z</time>
      </trkpt>
      <trkpt lat="45.03544" lon="0.53975">
        <ele>208.690613</ele>
        <time>2013-03-04T13:03:24Z</time>
      </trkpt>
      <trkpt lat="45.03551" lon="0.53983">
        <ele>208.281525</ele>
        <time>2013-03-04T13:03:25Z</time>
      </trkpt>
      <trkpt lat="45.03556" lon="0.53991">
        <ele>207.910919</ele>
        <time>2013-03-04T13:03:26Z</time>
      </trkpt>
      <trkpt lat="45.03563" lon="0.53997">
        <ele>207.468018</ele>
        <time>2013-03-04T13:03:27Z</time>
      </trkpt>
      <trkpt lat="45.03568" lon="0.54">
        <ele>207.118591</ele>
        <time>2013-03-04T13:03:28Z</time>
      </trkpt>
      <trkpt lat="45.03572" lon="0.54004">
        <ele>206.812561</ele>
        <time>2013-03-04T13:03:29Z</time>
      </trkpt>
      <trkpt lat="45.03583" lon="0.54017">
        <ele>206.031128</ele>
        <time>2013-03-04T13:03:31Z</time>
      </trkpt>
      <trkpt lat="45.03588" lon="0.54022">
        <ele>205.531464</ele>
        <time>2013-03-04T13:03:32Z</time>
      </trkpt>
      <trkpt lat="45.03597" lon="0.54031">
        <ele>204.688202</ele>
        <time>2013-03-04T13:03:34Z</time>
      </trkpt>
      <trkpt lat="45.03603" lon="0.54036">
        <ele>204.173615</ele>
        <time>2013-03-04T13:03:36Z</time>
      </trkpt>
      <trkpt lat="45.03609" lon="0.54042">
        <ele>203.718842</ele>
        <time>2013-03-04T13:03:38Z</time>
      </trkpt>
      <trkpt lat="45.03614" lon="0.54044">
        <ele>203.250763</ele>
        <time>2013-03-04T13:03:39Z</time>
      </trkpt>
      <trkpt lat="45.03624" lon="0.54046">
        <ele>202.444427</ele>
        <time>2013-03-04T13:03:41Z</time>
      </trkpt>
      <trkpt lat="45.03633" lon="0.54046">
        <ele>201.646423</ele>
        <time>2013-03-04T13:03:43Z</time>
      </trkpt>
      <trkpt lat="45.03645" lon="0.54051">
        <ele>200.675049</ele>
        <time>2013-03-04T13:03:45Z</time>
      </trkpt>
      <trkpt lat="45.0365" lon="0.54048">
        <ele>200.153015</ele>
        <time>2013-03-04T13:03:46Z</time>
      </trkpt>
      <trkpt lat="45.03663" lon="0.54046">
        <ele>198.94046</ele>
        <time>2013-03-04T13:03:48Z</time>
      </trkpt>
      <trkpt lat="45.03671" lon="0.54046">
        <ele>198.504272</ele>
        <time>2013-03-04T13:03:49Z</time>
      </trkpt>
      <trkpt lat="45.03677" lon="0.54048">
        <ele>198.282837</ele>
        <time>2013-03-04T13:03:50Z</time>
      </trkpt>
      <trkpt lat="45.03694" lon="0.54054">
        <ele>197.752808</ele>
        <time>2013-03-04T13:03:52Z</time>
      </trkpt>
      <trkpt lat="45.03701" lon="0.54058">
        <ele>197.52948</ele>
        <time>2013-03-04T13:03:53Z</time>
      </trkpt>
      <trkpt lat="45.03709" lon="0.54057">
        <ele>197.196899</ele>
        <time>2013-03-04T13:03:54Z</time>
      </trkpt>
      <trkpt lat="45.03715" lon="0.54059">
        <ele>196.99057</ele>
        <time>2013-03-04T13:03:55Z</time>
      </trkpt>
      <trkpt lat="45.03727" lon="0.5406">
        <ele>196.451385</ele>
        <time>2013-03-04T13:03:57Z</time>
      </trkpt>
      <trkpt lat="45.03734" lon="0.54063">
        <ele>196.236389</ele>
        <time>2013-03-04T13:03:58Z</time>
      </trkpt>
      <trkpt lat="45.03743" lon="0.54064">
        <ele>195.841736</ele>
        <time>2013-03-04T13:03:59Z</time>
      </trkpt>
      <trkpt lat="45.03751" lon="0.54066">
        <ele>195.547363</ele>
        <time>2013-03-04T13:04:00Z</time>
      </trkpt>
      <trkpt lat="45.03768" lon="0.54071">
        <ele>195.053528</ele>
        <time>2013-03-04T13:04:02Z</time>
      </trkpt>
      <trkpt lat="45.03776" lon="0.54074">
        <ele>194.846741</ele>
        <time>2013-03-04T13:04:03Z</time>
      </trkpt>
      <trkpt lat="45.03785" lon="0.54075">
        <ele>194.546906</ele>
        <time>2013-03-04T13:04:04Z</time>
      </trkpt>
      <trkpt lat="45.03791" lon="0.54077">
        <ele>194.366669</ele>
        <time>2013-03-04T13:04:05Z</time>
      </trkpt>
      <trkpt lat="45.03799" lon="0.54076">
        <ele>194.070557</ele>
        <time>2013-03-04T13:04:06Z</time>
      </trkpt>
      <trkpt lat="45.0381" lon="0.54094">
        <ele>193.979279</ele>
        <time>2013-03-04T13:04:08Z</time>
      </trkpt>
      <trkpt lat="45.03816" lon="0.54095">
        <ele>193.76059</ele>
        <time>2013-03-04T13:04:09Z</time>
      </trkpt>
      <trkpt lat="45.03828" lon="0.54098">
        <ele>193.36026</ele>
        <time>2013-03-04T13:04:10Z</time>
      </trkpt>
      <trkpt lat="45.03836" lon="0.541">
        <ele>193.015808</ele>
        <time>2013-03-04T13:04:11Z</time>
      </trkpt>
      <trkpt lat="45.03844" lon="0.54101">
        <ele>192.441193</ele>
        <time>2013-03-04T13:04:12Z</time>
      </trkpt>
      <trkpt lat="45.03851" lon="0.54103">
        <ele>191.932953</ele>
        <time>2013-03-04T13:04:13Z</time>
      </trkpt>
      <trkpt lat="45.0386" lon="0.54105">
        <ele>191.347321</ele>
        <time>2013-03-04T13:04:14Z</time>
      </trkpt>
      <trkpt lat="45.03873" lon="0.54107">
        <ele>190.40152</ele>
        <time>2013-03-04T13:04:16Z</time>
      </trkpt>
      <trkpt lat="45.03883" lon="0.54109">
        <ele>189.74588</ele>
        <time>2013-03-04T13:04:17Z</time>
      </trkpt>
      <trkpt lat="45.0389" lon="0.54111">
        <ele>189.250641</ele>
        <time>2013-03-04T13:04:18Z</time>
      </trkpt>
      <trkpt lat="45.0391" lon="0.54116">
        <ele>187.901123</ele>
        <time>2013-03-04T13:04:20Z</time>
      </trkpt>
      <trkpt lat="45.03918" lon="0.54118">
        <ele>187.353027</ele>
        <time>2013-03-04T13:04:21Z</time>
      </trkpt>
      <trkpt lat="45.03927" lon="0.5412">
        <ele>187.049438</ele>
        <time>2013-03-04T13:04:22Z</time>
      </trkpt>
      <trkpt lat="45.0394" lon="0.54123">
        <ele>186.610168</ele>
        <time>2013-03-04T13:04:24Z</time>
      </trkpt>
      <trkpt lat="45.03946" lon="0.54124">
        <ele>186.436279</ele>
        <time>2013-03-04T13:04:25Z</time>
      </trkpt>
      <trkpt lat="45.03952" lon="0.54126">
        <ele>186.25415</ele>
        <time>2013-03-04T13:04:26Z</time>
      </trkpt>
      <trkpt lat="45.03958" lon="0.54127">
        <ele>186.068237</ele>
        <time>2013-03-04T13:04:27Z</time>
      </trkpt>
      <trkpt lat="45.03965" lon="0.54129">
        <ele>185.843567</ele>
        <time>2013-03-04T13:04:28Z</time>
      </trkpt>
      <trkpt lat="45.03984" lon="0.54133">
        <ele>185.328247</ele>
        <time>2013-03-04T13:04:30Z</time>
      </trkpt>
      <trkpt lat="45.03989" lon="0.54134">
        <ele>185.18573</ele>
        <time>2013-03-04T13:04:31Z</time>
      </trkpt>
      <trkpt lat="45.03996" lon="0.54135">
        <ele>185.013977</ele>
        <time>2013-03-04T13:04:32Z</time>
      </trkpt>
      <trkpt lat="45.04002" lon="0.54137">
        <ele>184.982422</ele>
        <time>2013-03-04T13:04:33Z</time>
      </trkpt>
      <trkpt lat="45.04011" lon="0.54139">
        <ele>185.349609</ele>
        <time>2013-03-04T13:04:35Z</time>
      </trkpt>
      <trkpt lat="45.04018" lon="0.5414">
        <ele>185.610535</ele>
        <time>2013-03-04T13:04:36Z</time>
      </trkpt>
      <trkpt lat="45.04028" lon="0.54142">
        <ele>186.04718</ele>
        <time>2013-03-04T13:04:38Z</time>
      </trkpt>
      <trkpt lat="45.04041" lon="0.54145">
        <ele>186.556763</ele>
        <time>2013-03-04T13:04:40Z</time>
      </trkpt>
      <trkpt lat="45.04046" lon="0.54146">
        <ele>186.768677</ele>
        <time>2013-03-04T13:04:41Z</time>
      </trkpt>
      <trkpt lat="45.04052" lon="0.54147">
        <ele>187.039307</ele>
        <time>2013-03-04T13:04:43Z</time>
      </trkpt>
      <trkpt lat="45.04062" lon="0.54149">
        <ele>187.460083</ele>
        <time>2013-03-04T13:04:45Z</time>
      </trkpt>
      <trkpt lat="45.0407" lon="0.54151">
        <ele>187.77533</ele>
        <time>2013-03-04T13:04:47Z</time>
      </trkpt>
      <trkpt lat="45.0408" lon="0.54153">
        <ele>188.221008</ele>
        <time>2013-03-04T13:04:49Z</time>
      </trkpt>
      <trkpt lat="45.04088" lon="0.54155">
        <ele>188.283051</ele>
        <time>2013-03-04T13:04:51Z</time>
      </trkpt>
      <trkpt lat="45.04096" lon="0.54156">
        <ele>188.115387</ele>
        <time>2013-03-04T13:04:53Z</time>
      </trkpt>
      <trkpt lat="45.04105" lon="0.54158">
        <ele>187.930237</ele>
        <time>2013-03-04T13:04:55Z</time>
      </trkpt>
      <trkpt lat="45.04112" lon="0.5416">
        <ele>187.742798</ele>
        <time>2013-03-04T13:04:57Z</time>
      </trkpt>
      <trkpt lat="45.0412" lon="0.54161">
        <ele>187.546753</ele>
        <time>2013-03-04T13:04:59Z</time>
      </trkpt>
      <trkpt lat="45.04129" lon="0.54164">
        <ele>187.278259</ele>
        <time>2013-03-04T13:05:00Z</time>
      </trkpt>
      <trkpt lat="45.04135" lon="0.54165">
        <ele>187.111267</ele>
        <time>2013-03-04T13:05:01Z</time>
      </trkpt>
      <trkpt lat="45.04142" lon="0.54166">
        <ele>186.89978</ele>
        <time>2013-03-04T13:05:02Z</time>
      </trkpt>
      <trkpt lat="45.0415" lon="0.54168">
        <ele>186.639954</ele>
        <time>2013-03-04T13:05:03Z</time>
      </trkpt>
      <trkpt lat="45.04156" lon="0.5417">
        <ele>186.457153</ele>
        <time>2013-03-04T13:05:04Z</time>
      </trkpt>
      <trkpt lat="45.04165" lon="0.54172">
        <ele>186.142395</ele>
        <time>2013-03-04T13:05:05Z</time>
      </trkpt>
      <trkpt lat="45.04181" lon="0.54176">
        <ele>185.894592</ele>
        <time>2013-03-04T13:05:07Z</time>
      </trkpt>
      <trkpt lat="45.04188" lon="0.54177">
        <ele>185.803772</ele>
        <time>2013-03-04T13:05:08Z</time>
      </trkpt>
      <trkpt lat="45.04204" lon="0.54181">
        <ele>185.568298</ele>
        <time>2013-03-04T13:05:10Z</time>
      </trkpt>
      <trkpt lat="45.04218" lon="0.54184">
        <ele>185.344055</ele>
        <time>2013-03-04T13:05:12Z</time>
      </trkpt>
      <trkpt lat="45.04224" lon="0.54185">
        <ele>185.236633</ele>
        <time>2013-03-04T13:05:13Z</time>
      </trkpt>
      <trkpt lat="45.04231" lon="0.54187">
        <ele>185.100952</ele>
        <time>2013-03-04T13:05:14Z</time>
      </trkpt>
      <trkpt lat="45.04244" lon="0.5419">
        <ele>184.829407</ele>
        <time>2013-03-04T13:05:16Z</time>
      </trkpt>
      <trkpt lat="45.04255" lon="0.54193">
        <ele>184.537292</ele>
        <time>2013-03-04T13:05:17Z</time>
      </trkpt>
      <trkpt lat="45.04264" lon="0.54195">
        <ele>184.219177</ele>
        <time>2013-03-04T13:05:18Z</time>
      </trkpt>
      <trkpt lat="45.04281" lon="0.54199">
        <ele>183.637451</ele>
        <time>2013-03-04T13:05:20Z</time>
      </trkpt>
      <trkpt lat="45.0429" lon="0.54201">
        <ele>183.353027</ele>
        <time>2013-03-04T13:05:21Z</time>
      </trkpt>
      <trkpt lat="45.04305" lon="0.54205">
        <ele>182.869141</ele>
        <time>2013-03-04T13:05:23Z</time>
      </trkpt>
      <trkpt lat="45.04322" lon="0.54208">
        <ele>182.351562</ele>
        <time>2013-03-04T13:05:25Z</time>
      </trkpt>
      <trkpt lat="45.04328" lon="0.5421">
        <ele>182.174927</ele>
        <time>2013-03-04T13:05:26Z</time>
      </trkpt>
      <trkpt lat="45.04334" lon="0.54211">
        <ele>182.062927</ele>
        <time>2013-03-04T13:05:27Z</time>
      </trkpt>
      <trkpt lat="45.04343" lon="0.54213">
        <ele>182.622375</ele>
        <time>2013-03-04T13:05:29Z</time>
      </trkpt>
      <trkpt lat="45.04348" lon="0.54214">
        <ele>182.953003</ele>
        <time>2013-03-04T13:05:30Z</time>
      </trkpt>
      <trkpt lat="45.04353" lon="0.54215">
        <ele>183.286865</ele>
        <time>2013-03-04T13:05:31Z</time>
      </trkpt>
      <trkpt lat="45.04361" lon="0.54216">
        <ele>183.807068</ele>
        <time>2013-03-04T13:05:33Z</time>
      </trkpt>
      <trkpt lat="45.04366" lon="0.54217">
        <ele>184.102844</ele>
        <time>2013-03-04T13:05:34Z</time>
      </trkpt>
      <trkpt lat="45.04371" lon="0.54218">
        <ele>184.442627</ele>
        <time>2013-03-04T13:05:36Z</time>
      </trkpt>
      <trkpt lat="45.04378" lon="0.5422">
        <ele>184.891846</ele>
        <time>2013-03-04T13:05:39Z</time>
      </trkpt>
      <trkpt lat="45.04384" lon="0.54221">
        <ele>185.262756</ele>
        <time>2013-03-04T13:05:41Z</time>
      </trkpt>
      <trkpt lat="45.04391" lon="0.54222">
        <ele>185.708496</ele>
        <time>2013-03-04T13:05:44Z</time>
      </trkpt>
      <trkpt lat="45.04398" lon="0.54223">
        <ele>186.123779</ele>
        <time>2013-03-04T13:05:46Z</time>
      </trkpt>
      <trkpt lat="45.04404" lon="0.54224">
        <ele>186.4729</ele>
        <time>2013-03-04T13:05:48Z</time>
      </trkpt>
      <trkpt lat="45.04409" lon="0.54226">
        <ele>186.823425</ele>
        <time>2013-03-04T13:05:50Z</time>
      </trkpt>
      <trkpt lat="45.04415" lon="0.54227">
        <ele>187.156128</ele>
        <time>2013-03-04T13:05:52Z</time>
      </trkpt>
      <trkpt lat="45.0442" lon="0.54228">
        <ele>187.46167</ele>
        <time>2013-03-04T13:05:54Z</time>
      </trkpt>
      <trkpt lat="45.04426" lon="0.54229">
        <ele>187.73053</ele>
        <time>2013-03-04T13:05:56Z</time>
      </trkpt>
      <trkpt lat="45.04431" lon="0.5423">
        <ele>188.016327</ele>
        <time>2013-03-04T13:05:59Z</time>
      </trkpt>
      <trkpt lat="45.04438" lon="0.54231">
        <ele>188.373108</ele>
        <time>2013-03-04T13:06:02Z</time>
      </trkpt>
      <trkpt lat="45.04443" lon="0.54232">
        <ele>188.678436</ele>
        <time>2013-03-04T13:06:04Z</time>
      </trkpt>
      <trkpt lat="45.04449" lon="0.54233">
        <ele>189.006531</ele>
        <time>2013-03-04T13:06:06Z</time>
      </trkpt>
      <trkpt lat="45.04455" lon="0.54234">
        <ele>189.313934</ele>
        <time>2013-03-04T13:06:08Z</time>
      </trkpt>
      <trkpt lat="45.0446" lon="0.54235">
        <ele>189.600372</ele>
        <time>2013-03-04T13:06:10Z</time>
      </trkpt>
      <trkpt lat="45.04465" lon="0.54236">
        <ele>189.860046</ele>
        <time>2013-03-04T13:06:12Z</time>
      </trkpt>
      <trkpt lat="45.04472" lon="0.54237">
        <ele>190.242035</ele>
        <time>2013-03-04T13:06:15Z</time>
      </trkpt>
      <trkpt lat="45.04478" lon="0.54238">
        <ele>190.614655</ele>
        <time>2013-03-04T13:06:18Z</time>
      </trkpt>
      <trkpt lat="45.04483" lon="0.54239">
        <ele>190.890991</ele>
        <time>2013-03-04T13:06:20Z</time>
      </trkpt>
      <trkpt lat="45.04488" lon="0.5424">
        <ele>191.199799</ele>
        <time>2013-03-04T13:06:22Z</time>
      </trkpt>
      <trkpt lat="45.04493" lon="0.54241">
        <ele>191.509766</ele>
        <time>2013-03-04T13:06:24Z</time>
      </trkpt>
      <trkpt lat="45.04499" lon="0.54242">
        <ele>191.850464</ele>
        <time>2013-03-04T13:06:26Z</time>
      </trkpt>
      <trkpt lat="45.04505" lon="0.54243">
        <ele>191.783966</ele>
        <time>2013-03-04T13:06:28Z</time>
      </trkpt>
      <trkpt lat="45.04513" lon="0.54244">
        <ele>191.610413</ele>
        <time>2013-03-04T13:06:30Z</time>
      </trkpt>
      <trkpt lat="45.04521" lon="0.54245">
        <ele>191.417358</ele>
        <time>2013-03-04T13:06:32Z</time>
      </trkpt>
      <trkpt lat="45.04529" lon="0.54246">
        <ele>191.244659</ele>
        <time>2013-03-04T13:06:34Z</time>
      </trkpt>
      <trkpt lat="45.04544" lon="0.54264">
        <ele>191.107849</ele>
        <time>2013-03-04T13:06:39Z</time>
      </trkpt>
      <trkpt lat="45.0455" lon="0.54272">
        <ele>191.064697</ele>
        <time>2013-03-04T13:06:41Z</time>
      </trkpt>
      <trkpt lat="45.04555" lon="0.54278">
        <ele>191.014862</ele>
        <time>2013-03-04T13:06:42Z</time>
      </trkpt>
      <trkpt lat="45.04562" lon="0.54288">
        <ele>190.974182</ele>
        <time>2013-03-04T13:06:44Z</time>
      </trkpt>
      <trkpt lat="45.04565" lon="0.54293">
        <ele>190.949799</ele>
        <time>2013-03-04T13:06:45Z</time>
      </trkpt>
      <trkpt lat="45.04573" lon="0.54303">
        <ele>190.891846</ele>
        <time>2013-03-04T13:06:47Z</time>
      </trkpt>
      <trkpt lat="45.04605" lon="0.54277">
        <ele>189.052948</ele>
        <time>2013-03-04T13:06:49Z</time>
      </trkpt>
      <trkpt lat="45.04611" lon="0.5428">
        <ele>188.723022</ele>
        <time>2013-03-04T13:06:50Z</time>
      </trkpt>
      <trkpt lat="45.0462" lon="0.54286">
        <ele>188.221985</ele>
        <time>2013-03-04T13:06:52Z</time>
      </trkpt>
      <trkpt lat="45.04628" lon="0.54283">
        <ele>187.7052</ele>
        <time>2013-03-04T13:06:54Z</time>
      </trkpt>
      <trkpt lat="45.04633" lon="0.54284">
        <ele>187.410767</ele>
        <time>2013-03-04T13:06:55Z</time>
      </trkpt>
      <trkpt lat="45.04639" lon="0.54282">
        <ele>187.062073</ele>
        <time>2013-03-04T13:06:56Z</time>
      </trkpt>
      <trkpt lat="45.04655" lon="0.54291">
        <ele>186.167969</ele>
        <time>2013-03-04T13:06:58Z</time>
      </trkpt>
      <trkpt lat="45.04662" lon="0.54292">
        <ele>185.810852</ele>
        <time>2013-03-04T13:06:59Z</time>
      </trkpt>
      <trkpt lat="45.04673" lon="0.54297">
        <ele>185.5354</ele>
        <time>2013-03-04T13:07:01Z</time>
      </trkpt>
      <trkpt lat="45.04684" lon="0.54298">
        <ele>185.492554</ele>
        <time>2013-03-04T13:07:03Z</time>
      </trkpt>
      <trkpt lat="45.047" lon="0.54305">
        <ele>185.518738</ele>
        <time>2013-03-04T13:07:05Z</time>
      </trkpt>
      <trkpt lat="45.04707" lon="0.5431">
        <ele>185.588196</ele>
        <time>2013-03-04T13:07:06Z</time>
      </trkpt>
      <trkpt lat="45.04716" lon="0.54305">
        <ele>185.456421</ele>
        <time>2013-03-04T13:07:08Z</time>
      </trkpt>
      <trkpt lat="45.04725" lon="0.54311">
        <ele>185.551025</ele>
        <time>2013-03-04T13:07:09Z</time>
      </trkpt>
      <trkpt lat="45.04737" lon="0.54308">
        <ele>185.439514</ele>
        <time>2013-03-04T13:07:11Z</time>
      </trkpt>
      <trkpt lat="45.04744" lon="0.54311">
        <ele>185.481323</ele>
        <time>2013-03-04T13:07:12Z</time>
      </trkpt>
      <trkpt lat="45.0475" lon="0.54312">
        <ele>185.486023</ele>
        <time>2013-03-04T13:07:13Z</time>
      </trkpt>
      <trkpt lat="45.04756" lon="0.54312">
        <ele>185.465698</ele>
        <time>2013-03-04T13:07:14Z</time>
      </trkpt>
      <trkpt lat="45.04766" lon="0.5431">
        <ele>185.402344</ele>
        <time>2013-03-04T13:07:16Z</time>
      </trkpt>
      <trkpt lat="45.04772" lon="0.54314">
        <ele>185.450806</ele>
        <time>2013-03-04T13:07:17Z</time>
      </trkpt>
      <trkpt lat="45.04778" lon="0.54316">
        <ele>185.460327</ele>
        <time>2013-03-04T13:07:18Z</time>
      </trkpt>
      <trkpt lat="45.04786" lon="0.54314">
        <ele>185.406189</ele>
        <time>2013-03-04T13:07:20Z</time>
      </trkpt>
      <trkpt lat="45.04797" lon="0.54319">
        <ele>185.380981</ele>
        <time>2013-03-04T13:07:22Z</time>
      </trkpt>
      <trkpt lat="45.04809" lon="0.5432">
        <ele>185.314819</ele>
        <time>2013-03-04T13:07:24Z</time>
      </trkpt>
      <trkpt lat="45.04814" lon="0.54321">
        <ele>185.276062</ele>
        <time>2013-03-04T13:07:25Z</time>
      </trkpt>
      <trkpt lat="45.04827" lon="0.54323">
        <ele>185.174683</ele>
        <time>2013-03-04T13:07:27Z</time>
      </trkpt>
      <trkpt lat="45.04834" lon="0.54325">
        <ele>185.071838</ele>
        <time>2013-03-04T13:07:28Z</time>
      </trkpt>
      <trkpt lat="45.04841" lon="0.54326">
        <ele>184.88739</ele>
        <time>2013-03-04T13:07:29Z</time>
      </trkpt>
      <trkpt lat="45.0485" lon="0.54325">
        <ele>184.634155</ele>
        <time>2013-03-04T13:07:31Z</time>
      </trkpt>
      <trkpt lat="45.04862" lon="0.54329">
        <ele>184.30542</ele>
        <time>2013-03-04T13:07:33Z</time>
      </trkpt>
      <trkpt lat="45.04871" lon="0.54336">
        <ele>184.136169</ele>
        <time>2013-03-04T13:07:34Z</time>
      </trkpt>
      <trkpt lat="45.04882" lon="0.54337">
        <ele>183.887939</ele>
        <time>2013-03-04T13:07:36Z</time>
      </trkpt>
      <trkpt lat="45.04887" lon="0.54338">
        <ele>183.782715</ele>
        <time>2013-03-04T13:07:37Z</time>
      </trkpt>
      <trkpt lat="45.04892" lon="0.54336">
        <ele>183.642334</ele>
        <time>2013-03-04T13:07:38Z</time>
      </trkpt>
      <trkpt lat="45.0491" lon="0.54358">
        <ele>183.482483</ele>
        <time>2013-03-04T13:07:40Z</time>
      </trkpt>
      <trkpt lat="45.04915" lon="0.54354">
        <ele>183.300964</ele>
        <time>2013-03-04T13:07:42Z</time>
      </trkpt>
      <trkpt lat="45.04922" lon="0.54347">
        <ele>183.066406</ele>
        <time>2013-03-04T13:07:44Z</time>
      </trkpt>
      <trkpt lat="45.04935" lon="0.5434">
        <ele>182.787781</ele>
        <time>2013-03-04T13:07:48Z</time>
      </trkpt>
      <trkpt lat="45.0494" lon="0.54337">
        <ele>182.71698</ele>
        <time>2013-03-04T13:07:49Z</time>
      </trkpt>
      <trkpt lat="45.04949" lon="0.54332">
        <ele>182.596375</ele>
        <time>2013-03-04T13:07:51Z</time>
      </trkpt>
      <trkpt lat="45.04957" lon="0.54328">
        <ele>182.454407</ele>
        <time>2013-03-04T13:07:53Z</time>
      </trkpt>
      <trkpt lat="45.04964" lon="0.54324">
        <ele>182.332825</ele>
        <time>2013-03-04T13:07:54Z</time>
      </trkpt>
      <trkpt lat="45.0497" lon="0.54323">
        <ele>182.275146</ele>
        <time>2013-03-04T13:07:55Z</time>
      </trkpt>
      <trkpt lat="45.04979" lon="0.54322">
        <ele>182.180359</ele>
        <time>2013-03-04T13:07:57Z</time>
      </trkpt>
      <trkpt lat="45.04985" lon="0.54325">
        <ele>182.144531</ele>
        <time>2013-03-04T13:07:59Z</time>
      </trkpt>
      <trkpt lat="45.04992" lon="0.54326">
        <ele>182.084412</ele>
        <time>2013-03-04T13:08:01Z</time>
      </trkpt>
      <trkpt lat="45.04998" lon="0.54327">
        <ele>182.023621</ele>
        <time>2013-03-04T13:08:03Z</time>
      </trkpt>
      <trkpt lat="45.05003" lon="0.54325">
        <ele>182.169678</ele>
        <time>2013-03-04T13:08:05Z</time>
      </trkpt>
      <trkpt lat="45.05009" lon="0.54328">
        <ele>182.545593</ele>
        <time>2013-03-04T13:08:07Z</time>
      </trkpt>
      <trkpt lat="45.05014" lon="0.54329">
        <ele>182.884094</ele>
        <time>2013-03-04T13:08:09Z</time>
      </trkpt>
      <trkpt lat="45.05021" lon="0.54333">
        <ele>183.247559</ele>
        <time>2013-03-04T13:08:11Z</time>
      </trkpt>
      <trkpt lat="45.05027" lon="0.54334">
        <ele>183.5979</ele>
        <time>2013-03-04T13:08:13Z</time>
      </trkpt>
      <trkpt lat="45.05034" lon="0.54336">
        <ele>183.908569</ele>
        <time>2013-03-04T13:08:15Z</time>
      </trkpt>
      <trkpt lat="45.05039" lon="0.54336">
        <ele>184.180908</ele>
        <time>2013-03-04T13:08:17Z</time>
      </trkpt>
      <trkpt lat="45.05043" lon="0.54336">
        <ele>184.447388</ele>
        <time>2013-03-04T13:08:19Z</time>
      </trkpt>
      <trkpt lat="45.05049" lon="0.54337">
        <ele>184.699646</ele>
        <time>2013-03-04T13:08:22Z</time>
      </trkpt>
      <trkpt lat="45.05052" lon="0.54342">
        <ele>184.622314</ele>
        <time>2013-03-04T13:08:24Z</time>
      </trkpt>
      <trkpt lat="45.05054" lon="0.54349">
        <ele>184.32373</ele>
        <time>2013-03-04T13:08:27Z</time>
      </trkpt>
      <trkpt lat="45.05058" lon="0.54354">
        <ele>184.234497</ele>
        <time>2013-03-04T13:08:30Z</time>
      </trkpt>
      <trkpt lat="45.05062" lon="0.54355">
        <ele>184.340698</ele>
        <time>2013-03-04T13:08:32Z</time>
      </trkpt>
      <trkpt lat="45.05069" lon="0.54359">
        <ele>184.421875</ele>
        <time>2013-03-04T13:08:34Z</time>
      </trkpt>
      <trkpt lat="45.05077" lon="0.54364">
        <ele>184.456482</ele>
        <time>2013-03-04T13:08:36Z</time>
      </trkpt>
      <trkpt lat="45.05084" lon="0.54368">
        <ele>184.511169</ele>
        <time>2013-03-04T13:08:38Z</time>
      </trkpt>
      <trkpt lat="45.05089" lon="0.5437">
        <ele>184.056763</ele>
        <time>2013-03-04T13:08:40Z</time>
      </trkpt>
      <trkpt lat="45.05095" lon="0.54372">
        <ele>183.679688</ele>
        <time>2013-03-04T13:08:42Z</time>
      </trkpt>
      <trkpt lat="45.051" lon="0.54372">
        <ele>183.39209</ele>
        <time>2013-03-04T13:08:44Z</time>
      </trkpt>
      <trkpt lat="45.05107" lon="0.54374">
        <ele>182.953308</ele>
        <time>2013-03-04T13:08:46Z</time>
      </trkpt>
      <trkpt lat="45.05115" lon="0.54375">
        <ele>182.500671</ele>
        <time>2013-03-04T13:08:48Z</time>
      </trkpt>
      <trkpt lat="45.05123" lon="0.54374">
        <ele>182.125916</ele>
        <time>2013-03-04T13:08:50Z</time>
      </trkpt>
      <trkpt lat="45.05132" lon="0.54372">
        <ele>181.849792</ele>
        <time>2013-03-04T13:08:52Z</time>
      </trkpt>
      <trkpt lat="45.0514" lon="0.54369">
        <ele>181.645691</ele>
        <time>2013-03-04T13:08:54Z</time>
      </trkpt>
      <trkpt lat="45.05146" lon="0.54366">
        <ele>181.497742</ele>
        <time>2013-03-04T13:08:56Z</time>
      </trkpt>
      <trkpt lat="45.05152" lon="0.54363">
        <ele>181.352112</ele>
        <time>2013-03-04T13:08:58Z</time>
      </trkpt>
      <trkpt lat="45.05159" lon="0.54361">
        <ele>181.102844</ele>
        <time>2013-03-04T13:09:00Z</time>
      </trkpt>
      <trkpt lat="45.05169" lon="0.54359">
        <ele>180.571838</ele>
        <time>2013-03-04T13:09:02Z</time>
      </trkpt>
      <trkpt lat="45.05191" lon="0.54366">
        <ele>178.310791</ele>
        <time>2013-03-04T13:09:04Z</time>
      </trkpt>
      <trkpt lat="45.05197" lon="0.54366">
        <ele>177.81665</ele>
        <time>2013-03-04T13:09:05Z</time>
      </trkpt>
      <trkpt lat="45.05202" lon="0.54363">
        <ele>177.567993</ele>
        <time>2013-03-04T13:09:06Z</time>
      </trkpt>
      <trkpt lat="45.05213" lon="0.54361">
        <ele>176.794189</ele>
        <time>2013-03-04T13:09:08Z</time>
      </trkpt>
      <trkpt lat="45.05222" lon="0.54358">
        <ele>176.281372</ele>
        <time>2013-03-04T13:09:10Z</time>
      </trkpt>
      <trkpt lat="45.05229" lon="0.54358">
        <ele>175.629089</ele>
        <time>2013-03-04T13:09:11Z</time>
      </trkpt>
      <trkpt lat="45.05241" lon="0.5436">
        <ele>174.532715</ele>
        <time>2013-03-04T13:09:13Z</time>
      </trkpt>
      <trkpt lat="45.0525" lon="0.54362">
        <ele>173.577271</ele>
        <time>2013-03-04T13:09:15Z</time>
      </trkpt>
      <trkpt lat="45.05257" lon="0.54359">
        <ele>173.576172</ele>
        <time>2013-03-04T13:09:17Z</time>
      </trkpt>
      <trkpt lat="45.05264" lon="0.54361">
        <ele>173.072083</ele>
        <time>2013-03-04T13:09:19Z</time>
      </trkpt>
      <trkpt lat="45.0527" lon="0.54362">
        <ele>172.840454</ele>
        <time>2013-03-04T13:09:21Z</time>
      </trkpt>
      <trkpt lat="45.0528" lon="0.54359">
        <ele>172.714905</ele>
        <time>2013-03-04T13:09:23Z</time>
      </trkpt>
      <trkpt lat="45.05287" lon="0.54357">
        <ele>172.584473</ele>
        <time>2013-03-04T13:09:25Z</time>
      </trkpt>
      <trkpt lat="45.05293" lon="0.54356">
        <ele>172.38208</ele>
        <time>2013-03-04T13:09:27Z</time>
      </trkpt>
      <trkpt lat="45.05298" lon="0.54363">
        <ele>171.638794</ele>
        <time>2013-03-04T13:09:29Z</time>
      </trkpt>
      <trkpt lat="45.05299" lon="0.54372">
        <ele>170.738708</ele>
        <time>2013-03-04T13:09:31Z</time>
      </trkpt>
      <trkpt lat="45.05299" lon="0.54388">
        <ele>169.260986</ele>
        <time>2013-03-04T13:09:33Z</time>
      </trkpt>
      <trkpt lat="45.05299" lon="0.54397">
        <ele>168.47168</ele>
        <time>2013-03-04T13:09:34Z</time>
      </trkpt>
      <trkpt lat="45.05299" lon="0.54405">
        <ele>167.726685</ele>
        <time>2013-03-04T13:09:35Z</time>
      </trkpt>
      <trkpt lat="45.05299" lon="0.54419">
        <ele>166.44574</ele>
        <time>2013-03-04T13:09:37Z</time>
      </trkpt>
      <trkpt lat="45.05301" lon="0.54436">
        <ele>164.585999</ele>
        <time>2013-03-04T13:09:38Z</time>
      </trkpt>
      <trkpt lat="45.05298" lon="0.54452">
        <ele>163.110474</ele>
        <time>2013-03-04T13:09:40Z</time>
      </trkpt>
      <trkpt lat="45.05299" lon="0.54468">
        <ele>161.471802</ele>
        <time>2013-03-04T13:09:42Z</time>
      </trkpt>
      <trkpt lat="45.05303" lon="0.5448">
        <ele>159.761658</ele>
        <time>2013-03-04T13:09:44Z</time>
      </trkpt>
      <trkpt lat="45.053" lon="0.54491">
        <ele>158.894592</ele>
        <time>2013-03-04T13:09:46Z</time>
      </trkpt>
      <trkpt lat="45.05298" lon="0.545">
        <ele>158.291626</ele>
        <time>2013-03-04T13:09:48Z</time>
      </trkpt>
      <trkpt lat="45.05293" lon="0.54508">
        <ele>158</ele>
        <time>2013-03-04T13:09:50Z</time>
      </trkpt>
      <trkpt lat="45.05295" lon="0.54516">
        <ele>157.100586</ele>
        <time>2013-03-04T13:09:53Z</time>
      </trkpt>
      <trkpt lat="45.05295" lon="0.54522">
        <ele>156.444702</ele>
        <time>2013-03-04T13:09:55Z</time>
      </trkpt>
      <trkpt lat="45.05297" lon="0.54528">
        <ele>155.654968</ele>
        <time>2013-03-04T13:09:57Z</time>
      </trkpt>
      <trkpt lat="45.05288" lon="0.54539">
        <ele>155.653748</ele>
        <time>2013-03-04T13:09:58Z</time>
      </trkpt>
      <trkpt lat="45.05287" lon="0.54554">
        <ele>154.217285</ele>
        <time>2013-03-04T13:10:00Z</time>
      </trkpt>
      <trkpt lat="45.05289" lon="0.54572">
        <ele>152.319397</ele>
        <time>2013-03-04T13:10:02Z</time>
      </trkpt>
      <trkpt lat="45.05291" lon="0.54581">
        <ele>151.367065</ele>
        <time>2013-03-04T13:10:03Z</time>
      </trkpt>
      <trkpt lat="45.05288" lon="0.54589">
        <ele>151.63324</ele>
        <time>2013-03-04T13:10:04Z</time>
      </trkpt>
      <trkpt lat="45.05288" lon="0.54606">
        <ele>152.554993</ele>
        <time>2013-03-04T13:10:06Z</time>
      </trkpt>
      <trkpt lat="45.05288" lon="0.54614">
        <ele>152.939453</ele>
        <time>2013-03-04T13:10:07Z</time>
      </trkpt>
      <trkpt lat="45.05286" lon="0.54624">
        <ele>153.589294</ele>
        <time>2013-03-04T13:10:10Z</time>
      </trkpt>
      <trkpt lat="45.05284" lon="0.54631">
        <ele>154.136475</ele>
        <time>2013-03-04T13:10:12Z</time>
      </trkpt>
      <trkpt lat="45.05286" lon="0.5464">
        <ele>154.455078</ele>
        <time>2013-03-04T13:10:15Z</time>
      </trkpt>
      <trkpt lat="45.05287" lon="0.5465">
        <ele>154.873047</ele>
        <time>2013-03-04T13:10:18Z</time>
      </trkpt>
      <trkpt lat="45.05288" lon="0.54656">
        <ele>155.169189</ele>
        <time>2013-03-04T13:10:20Z</time>
      </trkpt>
      <trkpt lat="45.05288" lon="0.54663">
        <ele>155.497742</ele>
        <time>2013-03-04T13:10:22Z</time>
      </trkpt>
      <trkpt lat="45.05288" lon="0.54669">
        <ele>156.053406</ele>
        <time>2013-03-04T13:10:24Z</time>
      </trkpt>
      <trkpt lat="45.05288" lon="0.54675">
        <ele>156.966858</ele>
        <time>2013-03-04T13:10:26Z</time>
      </trkpt>
      <trkpt lat="45.05287" lon="0.54685">
        <ele>158.383545</ele>
        <time>2013-03-04T13:10:29Z</time>
      </trkpt>
      <trkpt lat="45.05284" lon="0.54691">
        <ele>159.387939</ele>
        <time>2013-03-04T13:10:31Z</time>
      </trkpt>
      <trkpt lat="45.05284" lon="0.54699">
        <ele>160.50647</ele>
        <time>2013-03-04T13:10:34Z</time>
      </trkpt>
      <trkpt lat="45.05286" lon="0.54706">
        <ele>161.411377</ele>
        <time>2013-03-04T13:10:37Z</time>
      </trkpt>
      <trkpt lat="45.05284" lon="0.54712">
        <ele>162.358337</ele>
        <time>2013-03-04T13:10:41Z</time>
      </trkpt>
      <trkpt lat="45.05282" lon="0.54718">
        <ele>163.304688</ele>
        <time>2013-03-04T13:10:44Z</time>
      </trkpt>
      <trkpt lat="45.05279" lon="0.54724">
        <ele>164.343933</ele>
        <time>2013-03-04T13:10:47Z</time>
      </trkpt>
      <trkpt lat="45.05281" lon="0.54731">
        <ele>165.143127</ele>
        <time>2013-03-04T13:10:50Z</time>
      </trkpt>
      <trkpt lat="45.05283" lon="0.54737">
        <ele>165.948242</ele>
        <time>2013-03-04T13:10:54Z</time>
      </trkpt>
      <trkpt lat="45.05284" lon="0.54743">
        <ele>166.827759</ele>
        <time>2013-03-04T13:10:57Z</time>
      </trkpt>
      <trkpt lat="45.05288" lon="0.54749">
        <ele>167.523254</ele>
        <time>2013-03-04T13:11:00Z</time>
      </trkpt>
      <trkpt lat="45.05287" lon="0.54756">
        <ele>168.210754</ele>
        <time>2013-03-04T13:11:05Z</time>
      </trkpt>
      <trkpt lat="45.05284" lon="0.54761">
        <ele>168.847229</ele>
        <time>2013-03-04T13:11:08Z</time>
      </trkpt>
      <trkpt lat="45.05286" lon="0.54769">
        <ele>169.531128</ele>
        <time>2013-03-04T13:11:12Z</time>
      </trkpt>
      <trkpt lat="45.05287" lon="0.54776">
        <ele>170.217896</ele>
        <time>2013-03-04T13:11:15Z</time>
      </trkpt>
      <trkpt lat="45.05289" lon="0.54785">
        <ele>171.028687</ele>
        <time>2013-03-04T13:11:18Z</time>
      </trkpt>
      <trkpt lat="45.05288" lon="0.54794">
        <ele>171.949219</ele>
        <time>2013-03-04T13:11:21Z</time>
      </trkpt>
      <trkpt lat="45.05287" lon="0.54802">
        <ele>172.762817</ele>
        <time>2013-03-04T13:11:24Z</time>
      </trkpt>
      <trkpt lat="45.05289" lon="0.54808">
        <ele>173.234863</ele>
        <time>2013-03-04T13:11:27Z</time>
      </trkpt>
      <trkpt lat="45.05291" lon="0.54814">
        <ele>173.72937</ele>
        <time>2013-03-04T13:11:30Z</time>
      </trkpt>
      <trkpt lat="45.05289" lon="0.54821">
        <ele>174.500732</ele>
        <time>2013-03-04T13:11:33Z</time>
      </trkpt>
      <trkpt lat="45.05291" lon="0.54829">
        <ele>175.172485</ele>
        <time>2013-03-04T13:11:36Z</time>
      </trkpt>
      <trkpt lat="45.05293" lon="0.54835">
        <ele>175.478088</ele>
        <time>2013-03-04T13:11:38Z</time>
      </trkpt>
      <trkpt lat="45.05295" lon="0.54841">
        <ele>175.459106</ele>
        <time>2013-03-04T13:11:40Z</time>
      </trkpt>
      <trkpt lat="45.05298" lon="0.54849">
        <ele>175.477295</ele>
        <time>2013-03-04T13:11:43Z</time>
      </trkpt>
      <trkpt lat="45.05296" lon="0.54857">
        <ele>175.788696</ele>
        <time>2013-03-04T13:11:46Z</time>
      </trkpt>
      <trkpt lat="45.05292" lon="0.54863">
        <ele>176.159851</ele>
        <time>2013-03-04T13:11:48Z</time>
      </trkpt>
      <trkpt lat="45.05287" lon="0.54869">
        <ele>176.665771</ele>
        <time>2013-03-04T13:11:50Z</time>
      </trkpt>
      <trkpt lat="45.05287" lon="0.54878">
        <ele>176.930176</ele>
        <time>2013-03-04T13:11:53Z</time>
      </trkpt>
      <trkpt lat="45.0529" lon="0.54882">
        <ele>176.811951</ele>
        <time>2013-03-04T13:11:55Z</time>
      </trkpt>
      <trkpt lat="45.05293" lon="0.54889">
        <ele>176.725708</ele>
        <time>2013-03-04T13:11:58Z</time>
      </trkpt>
      <trkpt lat="45.05297" lon="0.54894">
        <ele>176.570923</ele>
        <time>2013-03-04T13:12:00Z</time>
      </trkpt>
      <trkpt lat="45.05302" lon="0.54901">
        <ele>176.338257</ele>
        <time>2013-03-04T13:12:03Z</time>
      </trkpt>
      <trkpt lat="45.05305" lon="0.54906">
        <ele>176.131042</ele>
        <time>2013-03-04T13:12:05Z</time>
      </trkpt>
      <trkpt lat="45.0531" lon="0.54912">
        <ele>175.87207</ele>
        <time>2013-03-04T13:12:08Z</time>
      </trkpt>
      <trkpt lat="45.0531" lon="0.54921">
        <ele>175.93335</ele>
        <time>2013-03-04T13:12:11Z</time>
      </trkpt>
      <trkpt lat="45.05309" lon="0.54928">
        <ele>175.901001</ele>
        <time>2013-03-04T13:12:13Z</time>
      </trkpt>
      <trkpt lat="45.05304" lon="0.54933">
        <ele>176.233093</ele>
        <time>2013-03-04T13:12:16Z</time>
      </trkpt>
      <trkpt lat="45.05299" lon="0.54934">
        <ele>176.674377</ele>
        <time>2013-03-04T13:12:18Z</time>
      </trkpt>
      <trkpt lat="45.05293" lon="0.54938">
        <ele>177.147705</ele>
        <time>2013-03-04T13:12:21Z</time>
      </trkpt>
      <trkpt lat="45.05288" lon="0.54942">
        <ele>177.509033</ele>
        <time>2013-03-04T13:12:24Z</time>
      </trkpt>
      <trkpt lat="45.05283" lon="0.54944">
        <ele>177.874329</ele>
        <time>2013-03-04T13:12:27Z</time>
      </trkpt>
      <trkpt lat="45.05278" lon="0.54939">
        <ele>178.394531</ele>
        <time>2013-03-04T13:12:30Z</time>
      </trkpt>
      <trkpt lat="45.05274" lon="0.54934">
        <ele>178.743896</ele>
        <time>2013-03-04T13:12:32Z</time>
      </trkpt>
      <trkpt lat="45.0527" lon="0.54933">
        <ele>179.166443</ele>
        <time>2013-03-04T13:12:34Z</time>
      </trkpt>
      <trkpt lat="45.05266" lon="0.54939">
        <ele>179.427368</ele>
        <time>2013-03-04T13:12:36Z</time>
      </trkpt>
      <trkpt lat="45.05269" lon="0.54943">
        <ele>179.129761</ele>
        <time>2013-03-04T13:12:41Z</time>
      </trkpt>
      <trkpt lat="45.05277" lon="0.54949">
        <ele>178.334717</ele>
        <time>2013-03-04T13:12:45Z</time>
      </trkpt>
      <trkpt lat="45.05282" lon="0.54956">
        <ele>177.877991</ele>
        <time>2013-03-04T13:12:47Z</time>
      </trkpt>
      <trkpt lat="45.05296" lon="0.54979">
        <ele>176.411377</ele>
        <time>2013-03-04T13:12:49Z</time>
      </trkpt>
      <trkpt lat="45.053" lon="0.54983">
        <ele>176.011108</ele>
        <time>2013-03-04T13:12:50Z</time>
      </trkpt>
      <trkpt lat="45.05311" lon="0.54997">
        <ele>174.903625</ele>
        <time>2013-03-04T13:12:52Z</time>
      </trkpt>
      <trkpt lat="45.05317" lon="0.55006">
        <ele>174.211365</ele>
        <time>2013-03-04T13:12:53Z</time>
      </trkpt>
      <trkpt lat="45.05324" lon="0.55015">
        <ele>173.379089</ele>
        <time>2013-03-04T13:12:54Z</time>
      </trkpt>
      <trkpt lat="45.05329" lon="0.55023">
        <ele>172.758728</ele>
        <time>2013-03-04T13:12:55Z</time>
      </trkpt>
      <trkpt lat="45.05339" lon="0.55037">
        <ele>171.701782</ele>
        <time>2013-03-04T13:12:57Z</time>
      </trkpt>
      <trkpt lat="45.05345" lon="0.55043">
        <ele>171.211426</ele>
        <time>2013-03-04T13:12:58Z</time>
      </trkpt>
      <trkpt lat="45.05349" lon="0.55049">
        <ele>170.833801</ele>
        <time>2013-03-04T13:12:59Z</time>
      </trkpt>
      <trkpt lat="45.05362" lon="0.55054">
        <ele>169.988953</ele>
        <time>2013-03-04T13:13:01Z</time>
      </trkpt>
      <trkpt lat="45.05373" lon="0.55057">
        <ele>169.293213</ele>
        <time>2013-03-04T13:13:03Z</time>
      </trkpt>
      <trkpt lat="45.05391" lon="0.55062">
        <ele>168.194092</ele>
        <time>2013-03-04T13:13:05Z</time>
      </trkpt>
      <trkpt lat="45.05398" lon="0.55063">
        <ele>167.790955</ele>
        <time>2013-03-04T13:13:06Z</time>
      </trkpt>
      <trkpt lat="45.05405" lon="0.55064">
        <ele>167.440979</ele>
        <time>2013-03-04T13:13:07Z</time>
      </trkpt>
      <trkpt lat="45.05419" lon="0.55069">
        <ele>166.736572</ele>
        <time>2013-03-04T13:13:09Z</time>
      </trkpt>
      <trkpt lat="45.05425" lon="0.55071">
        <ele>166.457397</ele>
        <time>2013-03-04T13:13:10Z</time>
      </trkpt>
      <trkpt lat="45.05434" lon="0.55079">
        <ele>166.09845</ele>
        <time>2013-03-04T13:13:12Z</time>
      </trkpt>
      <trkpt lat="45.05446" lon="0.55087">
        <ele>165.400452</ele>
        <time>2013-03-04T13:13:14Z</time>
      </trkpt>
      <trkpt lat="45.05452" lon="0.55091">
        <ele>164.896606</ele>
        <time>2013-03-04T13:13:15Z</time>
      </trkpt>
      <trkpt lat="45.05465" lon="0.55094">
        <ele>164.068665</ele>
        <time>2013-03-04T13:13:17Z</time>
      </trkpt>
      <trkpt lat="45.05471" lon="0.55096">
        <ele>163.663269</ele>
        <time>2013-03-04T13:13:18Z</time>
      </trkpt>
      <trkpt lat="45.05485" lon="0.55085">
        <ele>163.591858</ele>
        <time>2013-03-04T13:13:20Z</time>
      </trkpt>
      <trkpt lat="45.05491" lon="0.55081">
        <ele>163.404358</ele>
        <time>2013-03-04T13:13:21Z</time>
      </trkpt>
      <trkpt lat="45.05496" lon="0.55076">
        <ele>163.127869</ele>
        <time>2013-03-04T13:13:22Z</time>
      </trkpt>
      <trkpt lat="45.05499" lon="0.5507">
        <ele>162.873352</ele>
        <time>2013-03-04T13:13:25Z</time>
      </trkpt>
      <trkpt lat="45.05501" lon="0.55074">
        <ele>162.701172</ele>
        <time>2013-03-04T13:13:31Z</time>
      </trkpt>
      <trkpt lat="45.055" lon="0.5508">
        <ele>162.979736</ele>
        <time>2013-03-04T13:13:33Z</time>
      </trkpt>
      <trkpt lat="45.05495" lon="0.55084">
        <ele>163.241333</ele>
        <time>2013-03-04T13:13:35Z</time>
      </trkpt>
      <trkpt lat="45.05492" lon="0.55089">
        <ele>163.052673</ele>
        <time>2013-03-04T13:13:37Z</time>
      </trkpt>
      <trkpt lat="45.05488" lon="0.55094">
        <ele>162.952209</ele>
        <time>2013-03-04T13:13:39Z</time>
      </trkpt>
      <trkpt lat="45.05483" lon="0.55097">
        <ele>163.03125</ele>
        <time>2013-03-04T13:13:41Z</time>
      </trkpt>
      <trkpt lat="45.05478" lon="0.551">
        <ele>163.143311</ele>
        <time>2013-03-04T13:13:43Z</time>
      </trkpt>
      <trkpt lat="45.05474" lon="0.55103">
        <ele>163.159485</ele>
        <time>2013-03-04T13:13:45Z</time>
      </trkpt>
      <trkpt lat="45.05471" lon="0.55108">
        <ele>163.002686</ele>
        <time>2013-03-04T13:13:48Z</time>
      </trkpt>
      <trkpt lat="45.05472" lon="0.55115">
        <ele>162.588501</ele>
        <time>2013-03-04T13:13:51Z</time>
      </trkpt>
      <trkpt lat="45.05475" lon="0.55121">
        <ele>162.088074</ele>
        <time>2013-03-04T13:13:53Z</time>
      </trkpt>
      <trkpt lat="45.05479" lon="0.5513">
        <ele>161.357971</ele>
        <time>2013-03-04T13:13:55Z</time>
      </trkpt>
      <trkpt lat="45.05483" lon="0.55139">
        <ele>160.60144</ele>
        <time>2013-03-04T13:13:57Z</time>
      </trkpt>
      <trkpt lat="45.05487" lon="0.55149">
        <ele>159.809082</ele>
        <time>2013-03-04T13:13:59Z</time>
      </trkpt>
      <trkpt lat="45.0549" lon="0.55159">
        <ele>159.010681</ele>
        <time>2013-03-04T13:14:01Z</time>
      </trkpt>
      <trkpt lat="45.05494" lon="0.55168">
        <ele>158.266968</ele>
        <time>2013-03-04T13:14:03Z</time>
      </trkpt>
      <trkpt lat="45.05498" lon="0.55179">
        <ele>157.245544</ele>
        <time>2013-03-04T13:14:05Z</time>
      </trkpt>
      <trkpt lat="45.05503" lon="0.55186">
        <ele>156.195374</ele>
        <time>2013-03-04T13:14:07Z</time>
      </trkpt>
      <trkpt lat="45.05506" lon="0.55192">
        <ele>155.369385</ele>
        <time>2013-03-04T13:14:09Z</time>
      </trkpt>
      <trkpt lat="45.0551" lon="0.552">
        <ele>154.314087</ele>
        <time>2013-03-04T13:14:12Z</time>
      </trkpt>
      <trkpt lat="45.05513" lon="0.55206">
        <ele>153.589233</ele>
        <time>2013-03-04T13:14:14Z</time>
      </trkpt>
      <trkpt lat="45.05515" lon="0.55212">
        <ele>152.885681</ele>
        <time>2013-03-04T13:14:16Z</time>
      </trkpt>
      <trkpt lat="45.05517" lon="0.55213">
        <ele>152.644531</ele>
        <time>2013-03-04T13:14:22Z</time>
      </trkpt>
      <trkpt lat="45.05519" lon="0.5521">
        <ele>152.56958</ele>
        <time>2013-03-04T13:14:28Z</time>
      </trkpt>
      <trkpt lat="45.0552" lon="0.55206">
        <ele>152.588379</ele>
        <time>2013-03-04T13:14:40Z</time>
      </trkpt>
      <trkpt lat="45.05524" lon="0.552">
        <ele>152.395142</ele>
        <time>2013-03-04T13:14:42Z</time>
      </trkpt>
      <trkpt lat="45.05529" lon="0.55191">
        <ele>152.202759</ele>
        <time>2013-03-04T13:14:44Z</time>
      </trkpt>
      <trkpt lat="45.05538" lon="0.55171">
        <ele>151.916443</ele>
        <time>2013-03-04T13:14:46Z</time>
      </trkpt>
      <trkpt lat="45.05542" lon="0.55158">
        <ele>152.089294</ele>
        <time>2013-03-04T13:14:48Z</time>
      </trkpt>
      <trkpt lat="45.05549" lon="0.55145">
        <ele>151.986877</ele>
        <time>2013-03-04T13:14:50Z</time>
      </trkpt>
      <trkpt lat="45.05552" lon="0.5514">
        <ele>151.868286</ele>
        <time>2013-03-04T13:14:51Z</time>
      </trkpt>
      <trkpt lat="45.05557" lon="0.55134">
        <ele>151.655457</ele>
        <time>2013-03-04T13:14:52Z</time>
      </trkpt>
      <trkpt lat="45.05561" lon="0.55128">
        <ele>151.55896</ele>
        <time>2013-03-04T13:14:53Z</time>
      </trkpt>
      <trkpt lat="45.05569" lon="0.55115">
        <ele>151.331726</ele>
        <time>2013-03-04T13:14:55Z</time>
      </trkpt>
      <trkpt lat="45.05578" lon="0.55102">
        <ele>151.256226</ele>
        <time>2013-03-04T13:14:57Z</time>
      </trkpt>
      <trkpt lat="45.05581" lon="0.55095">
        <ele>151.315552</ele>
        <time>2013-03-04T13:14:58Z</time>
      </trkpt>
      <trkpt lat="45.05593" lon="0.55081">
        <ele>151.085632</ele>
        <time>2013-03-04T13:15:00Z</time>
      </trkpt>
      <trkpt lat="45.05598" lon="0.55075">
        <ele>150.673645</ele>
        <time>2013-03-04T13:15:01Z</time>
      </trkpt>
      <trkpt lat="45.05603" lon="0.55067">
        <ele>150.414368</ele>
        <time>2013-03-04T13:15:02Z</time>
      </trkpt>
      <trkpt lat="45.05611" lon="0.55052">
        <ele>149.906128</ele>
        <time>2013-03-04T13:15:04Z</time>
      </trkpt>
      <trkpt lat="45.05614" lon="0.55046">
        <ele>149.696777</ele>
        <time>2013-03-04T13:15:05Z</time>
      </trkpt>
      <trkpt lat="45.05618" lon="0.55038">
        <ele>149.447266</ele>
        <time>2013-03-04T13:15:06Z</time>
      </trkpt>
      <trkpt lat="45.05627" lon="0.55023">
        <ele>148.756653</ele>
        <time>2013-03-04T13:15:08Z</time>
      </trkpt>
      <trkpt lat="45.05631" lon="0.55015">
        <ele>148.448181</ele>
        <time>2013-03-04T13:15:09Z</time>
      </trkpt>
      <trkpt lat="45.05635" lon="0.55007">
        <ele>148.05603</ele>
        <time>2013-03-04T13:15:10Z</time>
      </trkpt>
      <trkpt lat="45.05637" lon="0.54997">
        <ele>147.907532</ele>
        <time>2013-03-04T13:15:11Z</time>
      </trkpt>
      <trkpt lat="45.05644" lon="0.54982">
        <ele>147.205627</ele>
        <time>2013-03-04T13:15:13Z</time>
      </trkpt>
      <trkpt lat="45.05647" lon="0.54977">
        <ele>146.80896</ele>
        <time>2013-03-04T13:15:14Z</time>
      </trkpt>
      <trkpt lat="45.05656" lon="0.54953">
        <ele>145.949768</ele>
        <time>2013-03-04T13:15:16Z</time>
      </trkpt>
      <trkpt lat="45.05656" lon="0.54946">
        <ele>145.92218</ele>
        <time>2013-03-04T13:15:17Z</time>
      </trkpt>
      <trkpt lat="45.05659" lon="0.54936">
        <ele>145.658203</ele>
        <time>2013-03-04T13:15:18Z</time>
      </trkpt>
      <trkpt lat="45.05667" lon="0.5492">
        <ele>144.944153</ele>
        <time>2013-03-04T13:15:20Z</time>
      </trkpt>
      <trkpt lat="45.0567" lon="0.54912">
        <ele>145.184631</ele>
        <time>2013-03-04T13:15:21Z</time>
      </trkpt>
      <trkpt lat="45.05672" lon="0.54903">
        <ele>145.646423</ele>
        <time>2013-03-04T13:15:22Z</time>
      </trkpt>
      <trkpt lat="45.05679" lon="0.54887">
        <ele>146.299194</ele>
        <time>2013-03-04T13:15:24Z</time>
      </trkpt>
      <trkpt lat="45.05682" lon="0.54875">
        <ele>146.950195</ele>
        <time>2013-03-04T13:15:25Z</time>
      </trkpt>
      <trkpt lat="45.05684" lon="0.54868">
        <ele>147.289917</ele>
        <time>2013-03-04T13:15:26Z</time>
      </trkpt>
      <trkpt lat="45.05691" lon="0.54854">
        <ele>147.592285</ele>
        <time>2013-03-04T13:15:28Z</time>
      </trkpt>
      <trkpt lat="45.05697" lon="0.54845">
        <ele>147.507996</ele>
        <time>2013-03-04T13:15:30Z</time>
      </trkpt>
      <trkpt lat="45.05699" lon="0.54835">
        <ele>147.972473</ele>
        <time>2013-03-04T13:15:32Z</time>
      </trkpt>
      <trkpt lat="45.05701" lon="0.54827">
        <ele>147.969849</ele>
        <time>2013-03-04T13:15:34Z</time>
      </trkpt>
      <trkpt lat="45.05701" lon="0.5482">
        <ele>147.974976</ele>
        <time>2013-03-04T13:15:37Z</time>
      </trkpt>
      <trkpt lat="45.05707" lon="0.54815">
        <ele>147.290649</ele>
        <time>2013-03-04T13:15:40Z</time>
      </trkpt>
      <trkpt lat="45.05713" lon="0.54811">
        <ele>146.612</ele>
        <time>2013-03-04T13:15:42Z</time>
      </trkpt>
      <trkpt lat="45.0572" lon="0.54806">
        <ele>145.842773</ele>
        <time>2013-03-04T13:15:44Z</time>
      </trkpt>
      <trkpt lat="45.05734" lon="0.54792">
        <ele>144.305786</ele>
        <time>2013-03-04T13:15:46Z</time>
      </trkpt>
      <trkpt lat="45.05738" lon="0.54788">
        <ele>143.915771</ele>
        <time>2013-03-04T13:15:47Z</time>
      </trkpt>
      <trkpt lat="45.05748" lon="0.5478">
        <ele>142.872986</ele>
        <time>2013-03-04T13:15:49Z</time>
      </trkpt>
      <trkpt lat="45.05752" lon="0.54776">
        <ele>142.378052</ele>
        <time>2013-03-04T13:15:50Z</time>
      </trkpt>
      <trkpt lat="45.05762" lon="0.54764">
        <ele>141.074585</ele>
        <time>2013-03-04T13:15:52Z</time>
      </trkpt>
      <trkpt lat="45.05767" lon="0.54757">
        <ele>140.440002</ele>
        <time>2013-03-04T13:15:53Z</time>
      </trkpt>
      <trkpt lat="45.05783" lon="0.54755">
        <ele>138.230896</ele>
        <time>2013-03-04T13:15:55Z</time>
      </trkpt>
      <trkpt lat="45.0579" lon="0.54753">
        <ele>137.248169</ele>
        <time>2013-03-04T13:15:56Z</time>
      </trkpt>
      <trkpt lat="45.05795" lon="0.54747">
        <ele>136.400879</ele>
        <time>2013-03-04T13:15:57Z</time>
      </trkpt>
      <trkpt lat="45.05801" lon="0.54743">
        <ele>135.337708</ele>
        <time>2013-03-04T13:15:58Z</time>
      </trkpt>
      <trkpt lat="45.05815" lon="0.54741">
        <ele>133.196777</ele>
        <time>2013-03-04T13:16:00Z</time>
      </trkpt>
      <trkpt lat="45.05819" lon="0.54736">
        <ele>132.280823</ele>
        <time>2013-03-04T13:16:01Z</time>
      </trkpt>
      <trkpt lat="45.05826" lon="0.54736">
        <ele>131.288025</ele>
        <time>2013-03-04T13:16:02Z</time>
      </trkpt>
      <trkpt lat="45.05839" lon="0.54728">
        <ele>129.753296</ele>
        <time>2013-03-04T13:16:04Z</time>
      </trkpt>
      <trkpt lat="45.05843" lon="0.54725">
        <ele>129.448425</ele>
        <time>2013-03-04T13:16:05Z</time>
      </trkpt>
      <trkpt lat="45.05847" lon="0.54722">
        <ele>129.169739</ele>
        <time>2013-03-04T13:16:06Z</time>
      </trkpt>
      <trkpt lat="45.05856" lon="0.54718">
        <ele>128.636902</ele>
        <time>2013-03-04T13:16:08Z</time>
      </trkpt>
      <trkpt lat="45.05864" lon="0.54715">
        <ele>128.198303</ele>
        <time>2013-03-04T13:16:10Z</time>
      </trkpt>
      <trkpt lat="45.05875" lon="0.5471">
        <ele>127.549316</ele>
        <time>2013-03-04T13:16:12Z</time>
      </trkpt>
      <trkpt lat="45.05884" lon="0.54708">
        <ele>127.152161</ele>
        <time>2013-03-04T13:16:13Z</time>
      </trkpt>
      <trkpt lat="45.05893" lon="0.54709">
        <ele>126.870178</ele>
        <time>2013-03-04T13:16:15Z</time>
      </trkpt>
      <trkpt lat="45.05901" lon="0.54706">
        <ele>126.429871</ele>
        <time>2013-03-04T13:16:17Z</time>
      </trkpt>
      <trkpt lat="45.05897" lon="0.54704">
        <ele>126.523438</ele>
        <time>2013-03-04T13:16:18Z</time>
      </trkpt>
      <trkpt lat="45.05901" lon="0.54708">
        <ele>126.558838</ele>
        <time>2013-03-04T13:16:20Z</time>
      </trkpt>
      <trkpt lat="45.05906" lon="0.54709">
        <ele>126.410767</ele>
        <time>2013-03-04T13:16:23Z</time>
      </trkpt>
      <trkpt lat="45.05912" lon="0.54705">
        <ele>125.982056</ele>
        <time>2013-03-04T13:16:26Z</time>
      </trkpt>
      <trkpt lat="45.05918" lon="0.547">
        <ele>125.671814</ele>
        <time>2013-03-04T13:16:28Z</time>
      </trkpt>
      <trkpt lat="45.05924" lon="0.54695">
        <ele>125.692261</ele>
        <time>2013-03-04T13:16:30Z</time>
      </trkpt>
      <trkpt lat="45.05929" lon="0.54691">
        <ele>125.648254</ele>
        <time>2013-03-04T13:16:32Z</time>
      </trkpt>
      <trkpt lat="45.05934" lon="0.54687">
        <ele>125.636353</ele>
        <time>2013-03-04T13:16:34Z</time>
      </trkpt>
      <trkpt lat="45.05939" lon="0.54685">
        <ele>125.73761</ele>
        <time>2013-03-04T13:16:36Z</time>
      </trkpt>
      <trkpt lat="45.05944" lon="0.54684">
        <ele>125.806519</ele>
        <time>2013-03-04T13:16:38Z</time>
      </trkpt>
      <trkpt lat="45.05949" lon="0.54684">
        <ele>126.010803</ele>
        <time>2013-03-04T13:16:40Z</time>
      </trkpt>
      <trkpt lat="45.05954" lon="0.54685">
        <ele>126.292236</ele>
        <time>2013-03-04T13:16:42Z</time>
      </trkpt>
      <trkpt lat="45.0596" lon="0.54684">
        <ele>126.386841</ele>
        <time>2013-03-04T13:16:45Z</time>
      </trkpt>
      <trkpt lat="45.05965" lon="0.5468">
        <ele>126.220825</ele>
        <time>2013-03-04T13:16:48Z</time>
      </trkpt>
      <trkpt lat="45.05971" lon="0.54675">
        <ele>126.027344</ele>
        <time>2013-03-04T13:16:51Z</time>
      </trkpt>
      <trkpt lat="45.05976" lon="0.54672">
        <ele>125.887085</ele>
        <time>2013-03-04T13:16:54Z</time>
      </trkpt>
      <trkpt lat="45.05981" lon="0.54668">
        <ele>125.667969</ele>
        <time>2013-03-04T13:16:57Z</time>
      </trkpt>
      <trkpt lat="45.05986" lon="0.54664">
        <ele>125.557495</ele>
        <time>2013-03-04T13:17:00Z</time>
      </trkpt>
      <trkpt lat="45.05992" lon="0.54662">
        <ele>125.598083</ele>
        <time>2013-03-04T13:17:02Z</time>
      </trkpt>
      <trkpt lat="45.05997" lon="0.5466">
        <ele>125.602112</ele>
        <time>2013-03-04T13:17:04Z</time>
      </trkpt>
      <trkpt lat="45.06001" lon="0.54657">
        <ele>125.538513</ele>
        <time>2013-03-04T13:17:06Z</time>
      </trkpt>
      <trkpt lat="45.06006" lon="0.54652">
        <ele>125.33136</ele>
        <time>2013-03-04T13:17:08Z</time>
      </trkpt>
      <trkpt lat="45.0601" lon="0.54648">
        <ele>125.127686</ele>
        <time>2013-03-04T13:17:10Z</time>
      </trkpt>
      <trkpt lat="45.06015" lon="0.54644">
        <ele>124.941589</ele>
        <time>2013-03-04T13:17:12Z</time>
      </trkpt>
      <trkpt lat="45.06019" lon="0.54642">
        <ele>124.863403</ele>
        <time>2013-03-04T13:17:14Z</time>
      </trkpt>
      <trkpt lat="45.06026" lon="0.54645">
        <ele>125.029175</ele>
        <time>2013-03-04T13:17:16Z</time>
      </trkpt>
      <trkpt lat="45.06033" lon="0.54646">
        <ele>125.110535</ele>
        <time>2013-03-04T13:17:18Z</time>
      </trkpt>
      <trkpt lat="45.06042" lon="0.54648">
        <ele>125.279053</ele>
        <time>2013-03-04T13:17:19Z</time>
      </trkpt>
      <trkpt lat="45.06052" lon="0.54644">
        <ele>125.012573</ele>
        <time>2013-03-04T13:17:21Z</time>
      </trkpt>
      <trkpt lat="45.06058" lon="0.54642">
        <ele>124.900391</ele>
        <time>2013-03-04T13:17:22Z</time>
      </trkpt>
      <trkpt lat="45.06072" lon="0.5464">
        <ele>124.742188</ele>
        <time>2013-03-04T13:17:24Z</time>
      </trkpt>
      <trkpt lat="45.0608" lon="0.5464">
        <ele>124.756348</ele>
        <time>2013-03-04T13:17:25Z</time>
      </trkpt>
      <trkpt lat="45.06088" lon="0.54638">
        <ele>124.354309</ele>
        <time>2013-03-04T13:17:26Z</time>
      </trkpt>
      <trkpt lat="45.06105" lon="0.54636">
        <ele>123.237549</ele>
        <time>2013-03-04T13:17:28Z</time>
      </trkpt>
      <trkpt lat="45.06113" lon="0.54634">
        <ele>122.64502</ele>
        <time>2013-03-04T13:17:29Z</time>
      </trkpt>
      <trkpt lat="45.06122" lon="0.54632">
        <ele>122.08197</ele>
        <time>2013-03-04T13:17:30Z</time>
      </trkpt>
      <trkpt lat="45.06141" lon="0.54635">
        <ele>121.243652</ele>
        <time>2013-03-04T13:17:32Z</time>
      </trkpt>
      <trkpt lat="45.06149" lon="0.54634">
        <ele>120.764832</ele>
        <time>2013-03-04T13:17:33Z</time>
      </trkpt>
      <trkpt lat="45.06159" lon="0.54634">
        <ele>120.247681</ele>
        <time>2013-03-04T13:17:34Z</time>
      </trkpt>
      <trkpt lat="45.06168" lon="0.54635">
        <ele>119.817383</ele>
        <time>2013-03-04T13:17:35Z</time>
      </trkpt>
      <trkpt lat="45.06179" lon="0.54635">
        <ele>119.467529</ele>
        <time>2013-03-04T13:17:36Z</time>
      </trkpt>
      <trkpt lat="45.06199" lon="0.54628">
        <ele>118.624878</ele>
        <time>2013-03-04T13:17:38Z</time>
      </trkpt>
      <trkpt lat="45.06209" lon="0.54624">
        <ele>118.198364</ele>
        <time>2013-03-04T13:17:39Z</time>
      </trkpt>
      <trkpt lat="45.06213" lon="0.54618">
        <ele>117.916748</ele>
        <time>2013-03-04T13:17:40Z</time>
      </trkpt>
      <trkpt lat="45.06221" lon="0.54616">
        <ele>117.637451</ele>
        <time>2013-03-04T13:17:41Z</time>
      </trkpt>
      <trkpt lat="45.06222" lon="0.54608">
        <ele>117.36377</ele>
        <time>2013-03-04T13:17:42Z</time>
      </trkpt>
      <trkpt lat="45.0623" lon="0.54602">
        <ele>116.975037</ele>
        <time>2013-03-04T13:17:44Z</time>
      </trkpt>
      <trkpt lat="45.06237" lon="0.54602">
        <ele>116.808655</ele>
        <time>2013-03-04T13:17:46Z</time>
      </trkpt>
      <trkpt lat="45.06241" lon="0.54618">
        <ele>117.093567</ele>
        <time>2013-03-04T13:17:48Z</time>
      </trkpt>
      <trkpt lat="45.06242" lon="0.54626">
        <ele>117.267761</ele>
        <time>2013-03-04T13:17:49Z</time>
      </trkpt>
      <trkpt lat="45.06243" lon="0.54634">
        <ele>117.453735</ele>
        <time>2013-03-04T13:17:51Z</time>
      </trkpt>
      <trkpt lat="45.06245" lon="0.54645">
        <ele>117.626282</ele>
        <time>2013-03-04T13:17:53Z</time>
      </trkpt>
      <trkpt lat="45.06248" lon="0.54656">
        <ele>117.817322</ele>
        <time>2013-03-04T13:17:55Z</time>
      </trkpt>
      <trkpt lat="45.0625" lon="0.54666">
        <ele>117.999634</ele>
        <time>2013-03-04T13:17:57Z</time>
      </trkpt>
      <trkpt lat="45.06252" lon="0.54675">
        <ele>118.308655</ele>
        <time>2013-03-04T13:17:59Z</time>
      </trkpt>
      <trkpt lat="45.06254" lon="0.54682">
        <ele>118.648804</ele>
        <time>2013-03-04T13:18:01Z</time>
      </trkpt>
      <trkpt lat="45.06257" lon="0.5469">
        <ele>119.03656</ele>
        <time>2013-03-04T13:18:03Z</time>
      </trkpt>
      <trkpt lat="45.0626" lon="0.54698">
        <ele>119.362793</ele>
        <time>2013-03-04T13:18:05Z</time>
      </trkpt>
      <trkpt lat="45.06263" lon="0.54704">
        <ele>119.62262</ele>
        <time>2013-03-04T13:18:07Z</time>
      </trkpt>
      <trkpt lat="45.06266" lon="0.54711">
        <ele>119.90332</ele>
        <time>2013-03-04T13:18:09Z</time>
      </trkpt>
      <trkpt lat="45.0627" lon="0.54718">
        <ele>120.267456</ele>
        <time>2013-03-04T13:18:11Z</time>
      </trkpt>
      <trkpt lat="45.06275" lon="0.54725">
        <ele>120.608887</ele>
        <time>2013-03-04T13:18:13Z</time>
      </trkpt>
      <trkpt lat="45.06279" lon="0.54731">
        <ele>120.895874</ele>
        <time>2013-03-04T13:18:15Z</time>
      </trkpt>
      <trkpt lat="45.06283" lon="0.54738">
        <ele>121.134521</ele>
        <time>2013-03-04T13:18:17Z</time>
      </trkpt>
      <trkpt lat="45.06288" lon="0.54744">
        <ele>121.353333</ele>
        <time>2013-03-04T13:18:19Z</time>
      </trkpt>
      <trkpt lat="45.06292" lon="0.5475">
        <ele>121.541321</ele>
        <time>2013-03-04T13:18:21Z</time>
      </trkpt>
      <trkpt lat="45.06297" lon="0.54756">
        <ele>121.74231</ele>
        <time>2013-03-04T13:18:23Z</time>
      </trkpt>
      <trkpt lat="45.063" lon="0.54762">
        <ele>121.850464</ele>
        <time>2013-03-04T13:18:25Z</time>
      </trkpt>
      <trkpt lat="45.06303" lon="0.5477">
        <ele>121.890869</ele>
        <time>2013-03-04T13:18:27Z</time>
      </trkpt>
      <trkpt lat="45.06307" lon="0.54777">
        <ele>121.934937</ele>
        <time>2013-03-04T13:18:29Z</time>
      </trkpt>
      <trkpt lat="45.06311" lon="0.54784">
        <ele>121.977966</ele>
        <time>2013-03-04T13:18:31Z</time>
      </trkpt>
      <trkpt lat="45.06314" lon="0.54789">
        <ele>121.992188</ele>
        <time>2013-03-04T13:18:33Z</time>
      </trkpt>
      <trkpt lat="45.06319" lon="0.54793">
        <ele>122.014526</ele>
        <time>2013-03-04T13:18:35Z</time>
      </trkpt>
      <trkpt lat="45.06323" lon="0.54798">
        <ele>122.021912</ele>
        <time>2013-03-04T13:18:37Z</time>
      </trkpt>
      <trkpt lat="45.06328" lon="0.54801">
        <ele>122.050354</ele>
        <time>2013-03-04T13:18:39Z</time>
      </trkpt>
      <trkpt lat="45.06333" lon="0.54806">
        <ele>121.97052</ele>
        <time>2013-03-04T13:18:42Z</time>
      </trkpt>
      <trkpt lat="45.06337" lon="0.54811">
        <ele>122.082031</ele>
        <time>2013-03-04T13:18:45Z</time>
      </trkpt>
      <trkpt lat="45.06342" lon="0.54817">
        <ele>122.169922</ele>
        <time>2013-03-04T13:18:48Z</time>
      </trkpt>
      <trkpt lat="45.06347" lon="0.54823">
        <ele>122.250183</ele>
        <time>2013-03-04T13:18:51Z</time>
      </trkpt>
      <trkpt lat="45.06352" lon="0.54827">
        <ele>122.365601</ele>
        <time>2013-03-04T13:18:54Z</time>
      </trkpt>
      <trkpt lat="45.06357" lon="0.54829">
        <ele>122.600342</ele>
        <time>2013-03-04T13:18:57Z</time>
      </trkpt>
      <trkpt lat="45.06363" lon="0.54829">
        <ele>122.943237</ele>
        <time>2013-03-04T13:19:00Z</time>
      </trkpt>
      <trkpt lat="45.06367" lon="0.54829">
        <ele>123.274048</ele>
        <time>2013-03-04T13:19:02Z</time>
      </trkpt>
      <trkpt lat="45.06374" lon="0.54827">
        <ele>123.736755</ele>
        <time>2013-03-04T13:19:05Z</time>
      </trkpt>
      <trkpt lat="45.06379" lon="0.54826">
        <ele>124.1651</ele>
        <time>2013-03-04T13:19:08Z</time>
      </trkpt>
      <trkpt lat="45.06384" lon="0.54824">
        <ele>124.534119</ele>
        <time>2013-03-04T13:19:11Z</time>
      </trkpt>
      <trkpt lat="45.06388" lon="0.54824">
        <ele>124.878174</ele>
        <time>2013-03-04T13:19:14Z</time>
      </trkpt>
      <trkpt lat="45.06393" lon="0.5482">
        <ele>125.395508</ele>
        <time>2013-03-04T13:19:17Z</time>
      </trkpt>
      <trkpt lat="45.06398" lon="0.54817">
        <ele>125.875854</ele>
        <time>2013-03-04T13:19:20Z</time>
      </trkpt>
      <trkpt lat="45.06403" lon="0.54818">
        <ele>126.213745</ele>
        <time>2013-03-04T13:19:23Z</time>
      </trkpt>
      <trkpt lat="45.06408" lon="0.54822">
        <ele>126.282104</ele>
        <time>2013-03-04T13:19:25Z</time>
      </trkpt>
      <trkpt lat="45.06413" lon="0.54825">
        <ele>126.363098</ele>
        <time>2013-03-04T13:19:27Z</time>
      </trkpt>
      <trkpt lat="45.06418" lon="0.54827">
        <ele>126.544983</ele>
        <time>2013-03-04T13:19:30Z</time>
      </trkpt>
      <trkpt lat="45.06423" lon="0.5483">
        <ele>126.569458</ele>
        <time>2013-03-04T13:19:33Z</time>
      </trkpt>
      <trkpt lat="45.06429" lon="0.54833">
        <ele>126.659363</ele>
        <time>2013-03-04T13:19:36Z</time>
      </trkpt>
      <trkpt lat="45.06435" lon="0.54835">
        <ele>127.049927</ele>
        <time>2013-03-04T13:19:39Z</time>
      </trkpt>
      <trkpt lat="45.06441" lon="0.54836">
        <ele>127.490906</ele>
        <time>2013-03-04T13:19:42Z</time>
      </trkpt>
      <trkpt lat="45.06447" lon="0.54837">
        <ele>127.852112</ele>
        <time>2013-03-04T13:19:46Z</time>
      </trkpt>
      <trkpt lat="45.06453" lon="0.54837">
        <ele>128.130127</ele>
        <time>2013-03-04T13:19:49Z</time>
      </trkpt>
      <trkpt lat="45.06458" lon="0.54838">
        <ele>128.45874</ele>
        <time>2013-03-04T13:19:52Z</time>
      </trkpt>
      <trkpt lat="45.06464" lon="0.54839">
        <ele>128.805115</ele>
        <time>2013-03-04T13:19:55Z</time>
      </trkpt>
      <trkpt lat="45.06469" lon="0.54838">
        <ele>128.982849</ele>
        <time>2013-03-04T13:19:58Z</time>
      </trkpt>
      <trkpt lat="45.06474" lon="0.54837">
        <ele>129.181885</ele>
        <time>2013-03-04T13:20:01Z</time>
      </trkpt>
      <trkpt lat="45.06479" lon="0.54839">
        <ele>129.56842</ele>
        <time>2013-03-04T13:20:03Z</time>
      </trkpt>
      <trkpt lat="45.06484" lon="0.54841">
        <ele>130.008423</ele>
        <time>2013-03-04T13:20:05Z</time>
      </trkpt>
      <trkpt lat="45.06489" lon="0.54842">
        <ele>130.431946</ele>
        <time>2013-03-04T13:20:07Z</time>
      </trkpt>
      <trkpt lat="45.06494" lon="0.54843">
        <ele>130.763367</ele>
        <time>2013-03-04T13:20:10Z</time>
      </trkpt>
      <trkpt lat="45.065" lon="0.54845">
        <ele>131.206848</ele>
        <time>2013-03-04T13:20:13Z</time>
      </trkpt>
      <trkpt lat="45.06504" lon="0.54847">
        <ele>131.759155</ele>
        <time>2013-03-04T13:20:15Z</time>
      </trkpt>
      <trkpt lat="45.06509" lon="0.54852">
        <ele>132.557007</ele>
        <time>2013-03-04T13:20:17Z</time>
      </trkpt>
      <trkpt lat="45.06513" lon="0.54857">
        <ele>133.295898</ele>
        <time>2013-03-04T13:20:19Z</time>
      </trkpt>
      <trkpt lat="45.06517" lon="0.5486">
        <ele>133.767517</ele>
        <time>2013-03-04T13:20:21Z</time>
      </trkpt>
      <trkpt lat="45.06523" lon="0.54859">
        <ele>134.029663</ele>
        <time>2013-03-04T13:20:24Z</time>
      </trkpt>
      <trkpt lat="45.06527" lon="0.54861">
        <ele>134.415283</ele>
        <time>2013-03-04T13:20:26Z</time>
      </trkpt>
      <trkpt lat="45.06532" lon="0.54865">
        <ele>134.984985</ele>
        <time>2013-03-04T13:20:28Z</time>
      </trkpt>
      <trkpt lat="45.06538" lon="0.5487">
        <ele>135.520569</ele>
        <time>2013-03-04T13:20:30Z</time>
      </trkpt>
      <trkpt lat="45.06543" lon="0.54874">
        <ele>135.999207</ele>
        <time>2013-03-04T13:20:32Z</time>
      </trkpt>
      <trkpt lat="45.06549" lon="0.54876">
        <ele>136.32666</ele>
        <time>2013-03-04T13:20:34Z</time>
      </trkpt>
      <trkpt lat="45.06554" lon="0.54878">
        <ele>136.601929</ele>
        <time>2013-03-04T13:20:36Z</time>
      </trkpt>
      <trkpt lat="45.06559" lon="0.5488">
        <ele>136.832153</ele>
        <time>2013-03-04T13:20:38Z</time>
      </trkpt>
      <trkpt lat="45.06564" lon="0.54881">
        <ele>137.007629</ele>
        <time>2013-03-04T13:20:40Z</time>
      </trkpt>
      <trkpt lat="45.06569" lon="0.54881">
        <ele>137.166504</ele>
        <time>2013-03-04T13:20:42Z</time>
      </trkpt>
      <trkpt lat="45.06575" lon="0.54881">
        <ele>137.319946</ele>
        <time>2013-03-04T13:20:45Z</time>
      </trkpt>
      <trkpt lat="45.0658" lon="0.54879">
        <ele>137.449646</ele>
        <time>2013-03-04T13:20:49Z</time>
      </trkpt>
      <trkpt lat="45.06586" lon="0.54878">
        <ele>137.944397</ele>
        <time>2013-03-04T13:20:52Z</time>
      </trkpt>
      <trkpt lat="45.06592" lon="0.54881">
        <ele>138.658813</ele>
        <time>2013-03-04T13:20:55Z</time>
      </trkpt>
      <trkpt lat="45.06598" lon="0.54883">
        <ele>139.416992</ele>
        <time>2013-03-04T13:20:58Z</time>
      </trkpt>
      <trkpt lat="45.06603" lon="0.54885">
        <ele>140.100281</ele>
        <time>2013-03-04T13:21:00Z</time>
      </trkpt>
      <trkpt lat="45.06608" lon="0.54887">
        <ele>140.700745</ele>
        <time>2013-03-04T13:21:02Z</time>
      </trkpt>
      <trkpt lat="45.06613" lon="0.54892">
        <ele>141.145142</ele>
        <time>2013-03-04T13:21:04Z</time>
      </trkpt>
      <trkpt lat="45.06617" lon="0.54896">
        <ele>141.541382</ele>
        <time>2013-03-04T13:21:07Z</time>
      </trkpt>
      <trkpt lat="45.06622" lon="0.54901">
        <ele>141.854187</ele>
        <time>2013-03-04T13:21:10Z</time>
      </trkpt>
      <trkpt lat="45.06628" lon="0.54907">
        <ele>142.174011</ele>
        <time>2013-03-04T13:21:13Z</time>
      </trkpt>
      <trkpt lat="45.06632" lon="0.54911">
        <ele>142.355896</ele>
        <time>2013-03-04T13:21:15Z</time>
      </trkpt>
      <trkpt lat="45.06636" lon="0.54913">
        <ele>142.647034</ele>
        <time>2013-03-04T13:21:18Z</time>
      </trkpt>
      <trkpt lat="45.06643" lon="0.54916">
        <ele>143.009644</ele>
        <time>2013-03-04T13:21:22Z</time>
      </trkpt>
      <trkpt lat="45.06647" lon="0.5492">
        <ele>143.483704</ele>
        <time>2013-03-04T13:21:24Z</time>
      </trkpt>
      <trkpt lat="45.06653" lon="0.54925">
        <ele>144.156372</ele>
        <time>2013-03-04T13:21:26Z</time>
      </trkpt>
      <trkpt lat="45.06657" lon="0.5493">
        <ele>144.627136</ele>
        <time>2013-03-04T13:21:28Z</time>
      </trkpt>
      <trkpt lat="45.06663" lon="0.54935">
        <ele>145.059448</ele>
        <time>2013-03-04T13:21:31Z</time>
      </trkpt>
      <trkpt lat="45.06668" lon="0.5494">
        <ele>145.449097</ele>
        <time>2013-03-04T13:21:33Z</time>
      </trkpt>
      <trkpt lat="45.06672" lon="0.54943">
        <ele>146.028442</ele>
        <time>2013-03-04T13:21:35Z</time>
      </trkpt>
      <trkpt lat="45.06678" lon="0.54946">
        <ele>146.759521</ele>
        <time>2013-03-04T13:21:38Z</time>
      </trkpt>
      <trkpt lat="45.06682" lon="0.54949">
        <ele>147.314392</ele>
        <time>2013-03-04T13:21:41Z</time>
      </trkpt>
      <trkpt lat="45.06688" lon="0.5495">
        <ele>148.042542</ele>
        <time>2013-03-04T13:21:44Z</time>
      </trkpt>
      <trkpt lat="45.06693" lon="0.5495">
        <ele>148.679077</ele>
        <time>2013-03-04T13:21:47Z</time>
      </trkpt>
      <trkpt lat="45.06698" lon="0.54951">
        <ele>149.264709</ele>
        <time>2013-03-04T13:21:50Z</time>
      </trkpt>
      <trkpt lat="45.06703" lon="0.54953">
        <ele>149.824463</ele>
        <time>2013-03-04T13:21:55Z</time>
      </trkpt>
      <trkpt lat="45.06707" lon="0.54956">
        <ele>150.201904</ele>
        <time>2013-03-04T13:21:59Z</time>
      </trkpt>
      <trkpt lat="45.06712" lon="0.54958">
        <ele>150.698547</ele>
        <time>2013-03-04T13:22:03Z</time>
      </trkpt>
      <trkpt lat="45.06717" lon="0.54962">
        <ele>151.071289</ele>
        <time>2013-03-04T13:22:07Z</time>
      </trkpt>
      <trkpt lat="45.06722" lon="0.54965">
        <ele>151.330383</ele>
        <time>2013-03-04T13:22:10Z</time>
      </trkpt>
      <trkpt lat="45.06728" lon="0.54967">
        <ele>151.952759</ele>
        <time>2013-03-04T13:22:13Z</time>
      </trkpt>
      <trkpt lat="45.06735" lon="0.54968">
        <ele>152.61145</ele>
        <time>2013-03-04T13:22:16Z</time>
      </trkpt>
      <trkpt lat="45.06741" lon="0.54967">
        <ele>153.275269</ele>
        <time>2013-03-04T13:22:19Z</time>
      </trkpt>
      <trkpt lat="45.06747" lon="0.54966">
        <ele>154.005615</ele>
        <time>2013-03-04T13:22:23Z</time>
      </trkpt>
      <trkpt lat="45.06753" lon="0.54967">
        <ele>154.528931</ele>
        <time>2013-03-04T13:22:26Z</time>
      </trkpt>
      <trkpt lat="45.06758" lon="0.54967">
        <ele>155.231323</ele>
        <time>2013-03-04T13:22:29Z</time>
      </trkpt>
      <trkpt lat="45.06764" lon="0.54968">
        <ele>155.852844</ele>
        <time>2013-03-04T13:22:32Z</time>
      </trkpt>
      <trkpt lat="45.06769" lon="0.5497">
        <ele>156.252197</ele>
        <time>2013-03-04T13:22:34Z</time>
      </trkpt>
      <trkpt lat="45.06775" lon="0.54974">
        <ele>156.540527</ele>
        <time>2013-03-04T13:22:36Z</time>
      </trkpt>
      <trkpt lat="45.0678" lon="0.54979">
        <ele>156.637695</ele>
        <time>2013-03-04T13:22:38Z</time>
      </trkpt>
      <trkpt lat="45.06784" lon="0.54984">
        <ele>156.740417</ele>
        <time>2013-03-04T13:22:41Z</time>
      </trkpt>
      <trkpt lat="45.06788" lon="0.54987">
        <ele>156.91748</ele>
        <time>2013-03-04T13:22:44Z</time>
      </trkpt>
      <trkpt lat="45.06794" lon="0.54985">
        <ele>157.888916</ele>
        <time>2013-03-04T13:22:48Z</time>
      </trkpt>
      <trkpt lat="45.068" lon="0.5498">
        <ele>159.080139</ele>
        <time>2013-03-04T13:22:51Z</time>
      </trkpt>
      <trkpt lat="45.06804" lon="0.54975">
        <ele>160.032715</ele>
        <time>2013-03-04T13:22:53Z</time>
      </trkpt>
      <trkpt lat="45.06808" lon="0.54969">
        <ele>161.210876</ele>
        <time>2013-03-04T13:22:56Z</time>
      </trkpt>
      <trkpt lat="45.06811" lon="0.54962">
        <ele>162.308594</ele>
        <time>2013-03-04T13:22:59Z</time>
      </trkpt>
      <trkpt lat="45.06814" lon="0.54957">
        <ele>163.27002</ele>
        <time>2013-03-04T13:23:03Z</time>
      </trkpt>
      <trkpt lat="45.06818" lon="0.54958">
        <ele>163.533691</ele>
        <time>2013-03-04T13:23:08Z</time>
      </trkpt>
      <trkpt lat="45.06823" lon="0.54958">
        <ele>164.202759</ele>
        <time>2013-03-04T13:23:13Z</time>
      </trkpt>
      <trkpt lat="45.06827" lon="0.54955">
        <ele>165.150574</ele>
        <time>2013-03-04T13:23:17Z</time>
      </trkpt>
      <trkpt lat="45.06833" lon="0.54952">
        <ele>166.112915</ele>
        <time>2013-03-04T13:23:21Z</time>
      </trkpt>
      <trkpt lat="45.06837" lon="0.54951">
        <ele>166.38739</ele>
        <time>2013-03-04T13:23:25Z</time>
      </trkpt>
      <trkpt lat="45.06843" lon="0.54949">
        <ele>166.819336</ele>
        <time>2013-03-04T13:23:29Z</time>
      </trkpt>
      <trkpt lat="45.06849" lon="0.54945">
        <ele>167.326538</ele>
        <time>2013-03-04T13:23:32Z</time>
      </trkpt>
      <trkpt lat="45.06854" lon="0.54943">
        <ele>167.647766</ele>
        <time>2013-03-04T13:23:34Z</time>
      </trkpt>
      <trkpt lat="45.0686" lon="0.5494">
        <ele>168.024109</ele>
        <time>2013-03-04T13:23:37Z</time>
      </trkpt>
      <trkpt lat="45.06864" lon="0.54938">
        <ele>168.28772</ele>
        <time>2013-03-04T13:23:40Z</time>
      </trkpt>
      <trkpt lat="45.06869" lon="0.54937">
        <ele>168.41571</ele>
        <time>2013-03-04T13:23:43Z</time>
      </trkpt>
      <trkpt lat="45.06874" lon="0.54936">
        <ele>168.578979</ele>
        <time>2013-03-04T13:23:47Z</time>
      </trkpt>
      <trkpt lat="45.06878" lon="0.54934">
        <ele>168.821533</ele>
        <time>2013-03-04T13:23:50Z</time>
      </trkpt>
      <trkpt lat="45.06884" lon="0.54931">
        <ele>169.084351</ele>
        <time>2013-03-04T13:23:54Z</time>
      </trkpt>
      <trkpt lat="45.06891" lon="0.54932">
        <ele>169.117065</ele>
        <time>2013-03-04T13:24:00Z</time>
      </trkpt>
      <trkpt lat="45.06896" lon="0.5493">
        <ele>169.285889</ele>
        <time>2013-03-04T13:24:04Z</time>
      </trkpt>
      <trkpt lat="45.069" lon="0.54928">
        <ele>169.451721</ele>
        <time>2013-03-04T13:24:06Z</time>
      </trkpt>
      <trkpt lat="45.06905" lon="0.54922">
        <ele>169.748474</ele>
        <time>2013-03-04T13:24:09Z</time>
      </trkpt>
      <trkpt lat="45.06909" lon="0.54918">
        <ele>169.94165</ele>
        <time>2013-03-04T13:24:11Z</time>
      </trkpt>
      <trkpt lat="45.06913" lon="0.54914">
        <ele>170.473999</ele>
        <time>2013-03-04T13:24:13Z</time>
      </trkpt>
      <trkpt lat="45.06918" lon="0.54909">
        <ele>171.628479</ele>
        <time>2013-03-04T13:24:15Z</time>
      </trkpt>
      <trkpt lat="45.06922" lon="0.54903">
        <ele>173.264587</ele>
        <time>2013-03-04T13:24:18Z</time>
      </trkpt>
      <trkpt lat="45.06925" lon="0.54897">
        <ele>174.895813</ele>
        <time>2013-03-04T13:24:21Z</time>
      </trkpt>
      <trkpt lat="45.06929" lon="0.54893">
        <ele>176.108154</ele>
        <time>2013-03-04T13:24:25Z</time>
      </trkpt>
      <trkpt lat="45.06934" lon="0.5489">
        <ele>177.15271</ele>
        <time>2013-03-04T13:24:29Z</time>
      </trkpt>
      <trkpt lat="45.06938" lon="0.54891">
        <ele>177.561646</ele>
        <time>2013-03-04T13:24:45Z</time>
      </trkpt>
      <trkpt lat="45.06944" lon="0.54887">
        <ele>178.766846</ele>
        <time>2013-03-04T13:24:49Z</time>
      </trkpt>
      <trkpt lat="45.06949" lon="0.54882">
        <ele>180.101685</ele>
        <time>2013-03-04T13:24:52Z</time>
      </trkpt>
      <trkpt lat="45.06952" lon="0.54879">
        <ele>181.078125</ele>
        <time>2013-03-04T13:24:54Z</time>
      </trkpt>
      <trkpt lat="45.06957" lon="0.54874">
        <ele>182.217651</ele>
        <time>2013-03-04T13:24:57Z</time>
      </trkpt>
      <trkpt lat="45.06961" lon="0.54869">
        <ele>183.421936</ele>
        <time>2013-03-04T13:25:01Z</time>
      </trkpt>
      <trkpt lat="45.06963" lon="0.54865">
        <ele>184.219666</ele>
        <time>2013-03-04T13:25:06Z</time>
      </trkpt>
      <trkpt lat="45.06968" lon="0.54862">
        <ele>185.12085</ele>
        <time>2013-03-04T13:25:12Z</time>
      </trkpt>
      <trkpt lat="45.06973" lon="0.54855">
        <ele>186.372925</ele>
        <time>2013-03-04T13:25:15Z</time>
      </trkpt>
      <trkpt lat="45.06976" lon="0.5485">
        <ele>187.355835</ele>
        <time>2013-03-04T13:25:18Z</time>
      </trkpt>
      <trkpt lat="45.0698" lon="0.54845">
        <ele>188.317505</ele>
        <time>2013-03-04T13:25:21Z</time>
      </trkpt>
      <trkpt lat="45.06985" lon="0.54839">
        <ele>189.422485</ele>
        <time>2013-03-04T13:25:25Z</time>
      </trkpt>
      <trkpt lat="45.06989" lon="0.54838">
        <ele>189.86908</ele>
        <time>2013-03-04T13:25:28Z</time>
      </trkpt>
      <trkpt lat="45.06996" lon="0.54835">
        <ele>190.534851</ele>
        <time>2013-03-04T13:25:31Z</time>
      </trkpt>
      <trkpt lat="45.07001" lon="0.54832">
        <ele>191.035187</ele>
        <time>2013-03-04T13:25:33Z</time>
      </trkpt>
      <trkpt lat="45.07006" lon="0.54828">
        <ele>191.136108</ele>
        <time>2013-03-04T13:25:36Z</time>
      </trkpt>
      <trkpt lat="45.0701" lon="0.54823">
        <ele>191.225647</ele>
        <time>2013-03-04T13:25:39Z</time>
      </trkpt>
      <trkpt lat="45.07013" lon="0.54819">
        <ele>191.319275</ele>
        <time>2013-03-04T13:25:42Z</time>
      </trkpt>
      <trkpt lat="45.07017" lon="0.54816">
        <ele>191.381134</ele>
        <time>2013-03-04T13:25:45Z</time>
      </trkpt>
      <trkpt lat="45.07022" lon="0.54815">
        <ele>191.376892</ele>
        <time>2013-03-04T13:25:49Z</time>
      </trkpt>
      <trkpt lat="45.07027" lon="0.54814">
        <ele>191.384277</ele>
        <time>2013-03-04T13:25:53Z</time>
      </trkpt>
      <trkpt lat="45.07032" lon="0.54813">
        <ele>191.402985</ele>
        <time>2013-03-04T13:25:56Z</time>
      </trkpt>
      <trkpt lat="45.07037" lon="0.54811">
        <ele>191.425201</ele>
        <time>2013-03-04T13:25:59Z</time>
      </trkpt>
      <trkpt lat="45.07043" lon="0.54808">
        <ele>191.453857</ele>
        <time>2013-03-04T13:26:03Z</time>
      </trkpt>
      <trkpt lat="45.07048" lon="0.54807">
        <ele>191.45282</ele>
        <time>2013-03-04T13:26:06Z</time>
      </trkpt>
      <trkpt lat="45.07053" lon="0.54807">
        <ele>191.438354</ele>
        <time>2013-03-04T13:26:09Z</time>
      </trkpt>
      <trkpt lat="45.07058" lon="0.54808">
        <ele>191.402344</ele>
        <time>2013-03-04T13:26:13Z</time>
      </trkpt>
      <trkpt lat="45.07063" lon="0.54807">
        <ele>191.398468</ele>
        <time>2013-03-04T13:26:17Z</time>
      </trkpt>
      <trkpt lat="45.07069" lon="0.54805">
        <ele>191.406372</ele>
        <time>2013-03-04T13:26:22Z</time>
      </trkpt>
      <trkpt lat="45.07074" lon="0.54802">
        <ele>191.42627</ele>
        <time>2013-03-04T13:26:26Z</time>
      </trkpt>
      <trkpt lat="45.07078" lon="0.54798">
        <ele>191.454529</ele>
        <time>2013-03-04T13:26:29Z</time>
      </trkpt>
      <trkpt lat="45.07082" lon="0.54795">
        <ele>191.472961</ele>
        <time>2013-03-04T13:26:32Z</time>
      </trkpt>
      <trkpt lat="45.07087" lon="0.5479">
        <ele>191.717133</ele>
        <time>2013-03-04T13:26:35Z</time>
      </trkpt>
      <trkpt lat="45.07093" lon="0.54787">
        <ele>192.051361</ele>
        <time>2013-03-04T13:26:38Z</time>
      </trkpt>
      <trkpt lat="45.07099" lon="0.54787">
        <ele>192.37561</ele>
        <time>2013-03-04T13:26:41Z</time>
      </trkpt>
      <trkpt lat="45.07103" lon="0.54789">
        <ele>192.594879</ele>
        <time>2013-03-04T13:26:43Z</time>
      </trkpt>
      <trkpt lat="45.07108" lon="0.54789">
        <ele>192.859863</ele>
        <time>2013-03-04T13:26:46Z</time>
      </trkpt>
      <trkpt lat="45.07114" lon="0.54791">
        <ele>193.16275</ele>
        <time>2013-03-04T13:26:49Z</time>
      </trkpt>
      <trkpt lat="45.07119" lon="0.54794">
        <ele>193.418396</ele>
        <time>2013-03-04T13:26:51Z</time>
      </trkpt>
      <trkpt lat="45.07125" lon="0.54796">
        <ele>193.740204</ele>
        <time>2013-03-04T13:26:54Z</time>
      </trkpt>
      <trkpt lat="45.07131" lon="0.54798">
        <ele>194.021179</ele>
        <time>2013-03-04T13:26:57Z</time>
      </trkpt>
      <trkpt lat="45.07134" lon="0.54804">
        <ele>194.173218</ele>
        <time>2013-03-04T13:26:59Z</time>
      </trkpt>
      <trkpt lat="45.07136" lon="0.5481">
        <ele>194.284271</ele>
        <time>2013-03-04T13:27:01Z</time>
      </trkpt>
      <trkpt lat="45.07138" lon="0.54823">
        <ele>194.290802</ele>
        <time>2013-03-04T13:27:03Z</time>
      </trkpt>
      <trkpt lat="45.07138" lon="0.54834">
        <ele>194.293945</ele>
        <time>2013-03-04T13:27:05Z</time>
      </trkpt>
      <trkpt lat="45.07139" lon="0.54845">
        <ele>194.339539</ele>
        <time>2013-03-04T13:27:07Z</time>
      </trkpt>
      <trkpt lat="45.0714" lon="0.54856">
        <ele>194.378632</ele>
        <time>2013-03-04T13:27:09Z</time>
      </trkpt>
      <trkpt lat="45.07141" lon="0.54868">
        <ele>194.415009</ele>
        <time>2013-03-04T13:27:11Z</time>
      </trkpt>
      <trkpt lat="45.07141" lon="0.5488">
        <ele>194.403503</ele>
        <time>2013-03-04T13:27:13Z</time>
      </trkpt>
      <trkpt lat="45.0714" lon="0.54891">
        <ele>194.367523</ele>
        <time>2013-03-04T13:27:15Z</time>
      </trkpt>
      <trkpt lat="45.07141" lon="0.54901">
        <ele>194.391785</ele>
        <time>2013-03-04T13:27:17Z</time>
      </trkpt>
      <trkpt lat="45.07141" lon="0.5491">
        <ele>194.389618</ele>
        <time>2013-03-04T13:27:19Z</time>
      </trkpt>
      <trkpt lat="45.07142" lon="0.5492">
        <ele>194.416321</ele>
        <time>2013-03-04T13:27:21Z</time>
      </trkpt>
      <trkpt lat="45.07141" lon="0.5493">
        <ele>194.463196</ele>
        <time>2013-03-04T13:27:23Z</time>
      </trkpt>
      <trkpt lat="45.07139" lon="0.5494">
        <ele>194.444763</ele>
        <time>2013-03-04T13:27:25Z</time>
      </trkpt>
      <trkpt lat="45.07136" lon="0.5495">
        <ele>194.327881</ele>
        <time>2013-03-04T13:27:27Z</time>
      </trkpt>
      <trkpt lat="45.07133" lon="0.54959">
        <ele>194.202087</ele>
        <time>2013-03-04T13:27:29Z</time>
      </trkpt>
      <trkpt lat="45.07131" lon="0.54967">
        <ele>194.028778</ele>
        <time>2013-03-04T13:27:31Z</time>
      </trkpt>
      <trkpt lat="45.07128" lon="0.54975">
        <ele>193.864441</ele>
        <time>2013-03-04T13:27:33Z</time>
      </trkpt>
      <trkpt lat="45.07125" lon="0.54985">
        <ele>193.614899</ele>
        <time>2013-03-04T13:27:35Z</time>
      </trkpt>
      <trkpt lat="45.07123" lon="0.54995">
        <ele>193.333893</ele>
        <time>2013-03-04T13:27:37Z</time>
      </trkpt>
      <trkpt lat="45.0712" lon="0.55006">
        <ele>193.082123</ele>
        <time>2013-03-04T13:27:39Z</time>
      </trkpt>
      <trkpt lat="45.0712" lon="0.55017">
        <ele>193.097046</ele>
        <time>2013-03-04T13:27:41Z</time>
      </trkpt>
      <trkpt lat="45.07121" lon="0.55026">
        <ele>193.231567</ele>
        <time>2013-03-04T13:27:43Z</time>
      </trkpt>
      <trkpt lat="45.07126" lon="0.55028">
        <ele>193.717499</ele>
        <time>2013-03-04T13:27:45Z</time>
      </trkpt>
      <trkpt lat="45.07132" lon="0.55026">
        <ele>194.351746</ele>
        <time>2013-03-04T13:27:47Z</time>
      </trkpt>
      <trkpt lat="45.0714" lon="0.55024">
        <ele>195.062866</ele>
        <time>2013-03-04T13:27:49Z</time>
      </trkpt>
      <trkpt lat="45.07147" lon="0.55022">
        <ele>195.710327</ele>
        <time>2013-03-04T13:27:51Z</time>
      </trkpt>
      <trkpt lat="45.07155" lon="0.5502">
        <ele>196.368225</ele>
        <time>2013-03-04T13:27:53Z</time>
      </trkpt>
      <trkpt lat="45.07162" lon="0.55018">
        <ele>196.984039</ele>
        <time>2013-03-04T13:27:55Z</time>
      </trkpt>
      <trkpt lat="45.07168" lon="0.55018">
        <ele>197.397278</ele>
        <time>2013-03-04T13:27:57Z</time>
      </trkpt>
      <trkpt lat="45.07175" lon="0.55016">
        <ele>197.218933</ele>
        <time>2013-03-04T13:27:59Z</time>
      </trkpt>
      <trkpt lat="45.07183" lon="0.55015">
        <ele>197.044983</ele>
        <time>2013-03-04T13:28:01Z</time>
      </trkpt>
      <trkpt lat="45.07191" lon="0.55012">
        <ele>196.803101</ele>
        <time>2013-03-04T13:28:03Z</time>
      </trkpt>
      <trkpt lat="45.07199" lon="0.5501">
        <ele>196.548096</ele>
        <time>2013-03-04T13:28:05Z</time>
      </trkpt>
      <trkpt lat="45.07207" lon="0.55005">
        <ele>196.210297</ele>
        <time>2013-03-04T13:28:07Z</time>
      </trkpt>
      <trkpt lat="45.07218" lon="0.54996">
        <ele>195.613159</ele>
        <time>2013-03-04T13:28:09Z</time>
      </trkpt>
      <trkpt lat="45.07223" lon="0.54994">
        <ele>195.387543</ele>
        <time>2013-03-04T13:28:10Z</time>
      </trkpt>
      <trkpt lat="45.07235" lon="0.54997">
        <ele>195.189606</ele>
        <time>2013-03-04T13:28:12Z</time>
      </trkpt>
      <trkpt lat="45.07241" lon="0.54997">
        <ele>195.068085</ele>
        <time>2013-03-04T13:28:13Z</time>
      </trkpt>
      <trkpt lat="45.07247" lon="0.54995">
        <ele>194.759155</ele>
        <time>2013-03-04T13:28:14Z</time>
      </trkpt>
      <trkpt lat="45.07258" lon="0.55011">
        <ele>195.554382</ele>
        <time>2013-03-04T13:28:16Z</time>
      </trkpt>
      <trkpt lat="45.07263" lon="0.55011">
        <ele>195.565552</ele>
        <time>2013-03-04T13:28:17Z</time>
      </trkpt>
      <trkpt lat="45.07271" lon="0.55013">
        <ele>195.710388</ele>
        <time>2013-03-04T13:28:19Z</time>
      </trkpt>
      <trkpt lat="45.07284" lon="0.55018">
        <ele>196.096741</ele>
        <time>2013-03-04T13:28:21Z</time>
      </trkpt>
      <trkpt lat="45.07293" lon="0.55022">
        <ele>196.457092</ele>
        <time>2013-03-04T13:28:23Z</time>
      </trkpt>
      <trkpt lat="45.07304" lon="0.55027">
        <ele>196.929749</ele>
        <time>2013-03-04T13:28:25Z</time>
      </trkpt>
      <trkpt lat="45.07312" lon="0.55031">
        <ele>197.34201</ele>
        <time>2013-03-04T13:28:26Z</time>
      </trkpt>
      <trkpt lat="45.07325" lon="0.55033">
        <ele>197.615753</ele>
        <time>2013-03-04T13:28:28Z</time>
      </trkpt>
      <trkpt lat="45.0733" lon="0.55033">
        <ele>197.723511</ele>
        <time>2013-03-04T13:28:29Z</time>
      </trkpt>
      <trkpt lat="45.07336" lon="0.55033">
        <ele>197.836182</ele>
        <time>2013-03-04T13:28:30Z</time>
      </trkpt>
      <trkpt lat="45.07348" lon="0.55033">
        <ele>197.999817</ele>
        <time>2013-03-04T13:28:32Z</time>
      </trkpt>
      <trkpt lat="45.07353" lon="0.55033">
        <ele>198.030823</ele>
        <time>2013-03-04T13:28:33Z</time>
      </trkpt>
      <trkpt lat="45.07359" lon="0.55032">
        <ele>198.064484</ele>
        <time>2013-03-04T13:28:34Z</time>
      </trkpt>
      <trkpt lat="45.07364" lon="0.55031">
        <ele>198.093445</ele>
        <time>2013-03-04T13:28:35Z</time>
      </trkpt>
      <trkpt lat="45.0737" lon="0.55031">
        <ele>198.12674</ele>
        <time>2013-03-04T13:28:36Z</time>
      </trkpt>
      <trkpt lat="45.07379" lon="0.5503">
        <ele>198.189789</ele>
        <time>2013-03-04T13:28:38Z</time>
      </trkpt>
      <trkpt lat="45.07389" lon="0.55028">
        <ele>198.262634</ele>
        <time>2013-03-04T13:28:40Z</time>
      </trkpt>
      <trkpt lat="45.07395" lon="0.55028">
        <ele>198.309784</ele>
        <time>2013-03-04T13:28:41Z</time>
      </trkpt>
      <trkpt lat="45.07403" lon="0.55027">
        <ele>198.366547</ele>
        <time>2013-03-04T13:28:42Z</time>
      </trkpt>
      <trkpt lat="45.07415" lon="0.55025">
        <ele>198.460663</ele>
        <time>2013-03-04T13:28:44Z</time>
      </trkpt>
      <trkpt lat="45.07425" lon="0.55023">
        <ele>198.303711</ele>
        <time>2013-03-04T13:28:46Z</time>
      </trkpt>
      <trkpt lat="45.07432" lon="0.55022">
        <ele>198.125763</ele>
        <time>2013-03-04T13:28:47Z</time>
      </trkpt>
      <trkpt lat="45.07447" lon="0.55019">
        <ele>197.786041</ele>
        <time>2013-03-04T13:28:49Z</time>
      </trkpt>
      <trkpt lat="45.07461" lon="0.55017">
        <ele>197.463379</ele>
        <time>2013-03-04T13:28:51Z</time>
      </trkpt>
      <trkpt lat="45.07468" lon="0.55015">
        <ele>197.29126</ele>
        <time>2013-03-04T13:28:52Z</time>
      </trkpt>
      <trkpt lat="45.07475" lon="0.55013">
        <ele>197.105286</ele>
        <time>2013-03-04T13:28:53Z</time>
      </trkpt>
      <trkpt lat="45.07483" lon="0.55012">
        <ele>196.912476</ele>
        <time>2013-03-04T13:28:54Z</time>
      </trkpt>
      <trkpt lat="45.0749" lon="0.5501">
        <ele>196.725739</ele>
        <time>2013-03-04T13:28:55Z</time>
      </trkpt>
      <trkpt lat="45.07506" lon="0.55007">
        <ele>196.081573</ele>
        <time>2013-03-04T13:28:57Z</time>
      </trkpt>
      <trkpt lat="45.07514" lon="0.55005">
        <ele>195.625916</ele>
        <time>2013-03-04T13:28:58Z</time>
      </trkpt>
      <trkpt lat="45.07522" lon="0.55002">
        <ele>195.089661</ele>
        <time>2013-03-04T13:28:59Z</time>
      </trkpt>
      <trkpt lat="45.0753" lon="0.55">
        <ele>194.595154</ele>
        <time>2013-03-04T13:29:00Z</time>
      </trkpt>
      <trkpt lat="45.07549" lon="0.54995">
        <ele>193.12619</ele>
        <time>2013-03-04T13:29:02Z</time>
      </trkpt>
      <trkpt lat="45.07563" lon="0.54991">
        <ele>192.069214</ele>
        <time>2013-03-04T13:29:03Z</time>
      </trkpt>
      <trkpt lat="45.07572" lon="0.54988">
        <ele>191.217194</ele>
        <time>2013-03-04T13:29:04Z</time>
      </trkpt>
      <trkpt lat="45.07592" lon="0.54979">
        <ele>190.034454</ele>
        <time>2013-03-04T13:29:06Z</time>
      </trkpt>
      <trkpt lat="45.07601" lon="0.54975">
        <ele>189.93396</ele>
        <time>2013-03-04T13:29:07Z</time>
      </trkpt>
      <trkpt lat="45.07619" lon="0.54967">
        <ele>189.828217</ele>
        <time>2013-03-04T13:29:09Z</time>
      </trkpt>
      <trkpt lat="45.07628" lon="0.54964">
        <ele>189.838135</ele>
        <time>2013-03-04T13:29:10Z</time>
      </trkpt>
      <trkpt lat="45.07641" lon="0.54959">
        <ele>189.948151</ele>
        <time>2013-03-04T13:29:12Z</time>
      </trkpt>
      <trkpt lat="45.07655" lon="0.54953">
        <ele>190.136017</ele>
        <time>2013-03-04T13:29:14Z</time>
      </trkpt>
      <trkpt lat="45.07663" lon="0.54951">
        <ele>190.260345</ele>
        <time>2013-03-04T13:29:15Z</time>
      </trkpt>
      <trkpt lat="45.07678" lon="0.54945">
        <ele>189.822327</ele>
        <time>2013-03-04T13:29:17Z</time>
      </trkpt>
      <trkpt lat="45.07685" lon="0.54941">
        <ele>189.48056</ele>
        <time>2013-03-04T13:29:18Z</time>
      </trkpt>
      <trkpt lat="45.07693" lon="0.54936">
        <ele>189.096832</ele>
        <time>2013-03-04T13:29:19Z</time>
      </trkpt>
      <trkpt lat="45.07709" lon="0.54922">
        <ele>188.258484</ele>
        <time>2013-03-04T13:29:21Z</time>
      </trkpt>
      <trkpt lat="45.07717" lon="0.54915">
        <ele>187.866333</ele>
        <time>2013-03-04T13:29:22Z</time>
      </trkpt>
      <trkpt lat="45.07732" lon="0.54901">
        <ele>187.059998</ele>
        <time>2013-03-04T13:29:24Z</time>
      </trkpt>
      <trkpt lat="45.07738" lon="0.54895">
        <ele>186.763367</ele>
        <time>2013-03-04T13:29:25Z</time>
      </trkpt>
      <trkpt lat="45.07745" lon="0.54888">
        <ele>186.521851</ele>
        <time>2013-03-04T13:29:26Z</time>
      </trkpt>
      <trkpt lat="45.0776" lon="0.54873">
        <ele>185.851746</ele>
        <time>2013-03-04T13:29:28Z</time>
      </trkpt>
      <trkpt lat="45.07767" lon="0.54867">
        <ele>185.53894</ele>
        <time>2013-03-04T13:29:29Z</time>
      </trkpt>
      <trkpt lat="45.07773" lon="0.5486">
        <ele>185.208008</ele>
        <time>2013-03-04T13:29:30Z</time>
      </trkpt>
      <trkpt lat="45.07781" lon="0.54836">
        <ele>184.094849</ele>
        <time>2013-03-04T13:29:32Z</time>
      </trkpt>
      <trkpt lat="45.07788" lon="0.54827">
        <ele>183.334473</ele>
        <time>2013-03-04T13:29:33Z</time>
      </trkpt>
      <trkpt lat="45.07795" lon="0.54818">
        <ele>182.582275</ele>
        <time>2013-03-04T13:29:34Z</time>
      </trkpt>
      <trkpt lat="45.07817" lon="0.54817">
        <ele>182.542908</ele>
        <time>2013-03-04T13:29:36Z</time>
      </trkpt>
      <trkpt lat="45.07825" lon="0.54809">
        <ele>181.890747</ele>
        <time>2013-03-04T13:29:37Z</time>
      </trkpt>
      <trkpt lat="45.07833" lon="0.548">
        <ele>181.234741</ele>
        <time>2013-03-04T13:29:38Z</time>
      </trkpt>
      <trkpt lat="45.07849" lon="0.54778">
        <ele>178.43512</ele>
        <time>2013-03-04T13:29:40Z</time>
      </trkpt>
      <trkpt lat="45.07856" lon="0.54766">
        <ele>177.285095</ele>
        <time>2013-03-04T13:29:41Z</time>
      </trkpt>
      <trkpt lat="45.0786" lon="0.54759">
        <ele>176.640381</ele>
        <time>2013-03-04T13:29:42Z</time>
      </trkpt>
      <trkpt lat="45.07866" lon="0.54756">
        <ele>176.187622</ele>
        <time>2013-03-04T13:29:44Z</time>
      </trkpt>
      <trkpt lat="45.07885" lon="0.54753">
        <ele>175.266846</ele>
        <time>2013-03-04T13:29:46Z</time>
      </trkpt>
      <trkpt lat="45.07896" lon="0.54752">
        <ele>174.826904</ele>
        <time>2013-03-04T13:29:47Z</time>
      </trkpt>
      <trkpt lat="45.07911" lon="0.54751">
        <ele>174.247925</ele>
        <time>2013-03-04T13:29:48Z</time>
      </trkpt>
      <trkpt lat="45.07919" lon="0.54747">
        <ele>173.229675</ele>
        <time>2013-03-04T13:29:49Z</time>
      </trkpt>
      <trkpt lat="45.07927" lon="0.54744">
        <ele>171.574768</ele>
        <time>2013-03-04T13:29:50Z</time>
      </trkpt>
      <trkpt lat="45.0794" lon="0.54737">
        <ele>168.931763</ele>
        <time>2013-03-04T13:29:52Z</time>
      </trkpt>
      <trkpt lat="45.07948" lon="0.54733">
        <ele>167.342834</ele>
        <time>2013-03-04T13:29:53Z</time>
      </trkpt>
      <trkpt lat="45.07959" lon="0.54727">
        <ele>165.237854</ele>
        <time>2013-03-04T13:29:54Z</time>
      </trkpt>
      <trkpt lat="45.07995" lon="0.54697">
        <ele>159.238525</ele>
        <time>2013-03-04T13:29:57Z</time>
      </trkpt>
      <trkpt lat="45.08003" lon="0.54687">
        <ele>158.058594</ele>
        <time>2013-03-04T13:29:58Z</time>
      </trkpt>
      <trkpt lat="45.08015" lon="0.54667">
        <ele>156.041565</ele>
        <time>2013-03-04T13:30:00Z</time>
      </trkpt>
      <trkpt lat="45.0802" lon="0.54658">
        <ele>154.673584</ele>
        <time>2013-03-04T13:30:01Z</time>
      </trkpt>
      <trkpt lat="45.08023" lon="0.54649">
        <ele>153.524353</ele>
        <time>2013-03-04T13:30:02Z</time>
      </trkpt>
      <trkpt lat="45.08027" lon="0.54642">
        <ele>152.600647</ele>
        <time>2013-03-04T13:30:03Z</time>
      </trkpt>
      <trkpt lat="45.0803" lon="0.54635">
        <ele>151.699768</ele>
        <time>2013-03-04T13:30:04Z</time>
      </trkpt>
      <trkpt lat="45.08035" lon="0.546">
        <ele>148.637268</ele>
        <time>2013-03-04T13:30:07Z</time>
      </trkpt>
      <trkpt lat="45.08039" lon="0.54578">
        <ele>146.734497</ele>
        <time>2013-03-04T13:30:09Z</time>
      </trkpt>
      <trkpt lat="45.08041" lon="0.54571">
        <ele>145.939453</ele>
        <time>2013-03-04T13:30:10Z</time>
      </trkpt>
      <trkpt lat="45.08049" lon="0.54548">
        <ele>143.562439</ele>
        <time>2013-03-04T13:30:12Z</time>
      </trkpt>
      <trkpt lat="45.08054" lon="0.54538">
        <ele>142.630371</ele>
        <time>2013-03-04T13:30:13Z</time>
      </trkpt>
      <trkpt lat="45.08064" lon="0.54516">
        <ele>140.874512</ele>
        <time>2013-03-04T13:30:15Z</time>
      </trkpt>
      <trkpt lat="45.0807" lon="0.54504">
        <ele>140.065613</ele>
        <time>2013-03-04T13:30:16Z</time>
      </trkpt>
      <trkpt lat="45.08076" lon="0.5449">
        <ele>139.098633</ele>
        <time>2013-03-04T13:30:17Z</time>
      </trkpt>
      <trkpt lat="45.08081" lon="0.54478">
        <ele>138.335144</ele>
        <time>2013-03-04T13:30:18Z</time>
      </trkpt>
      <trkpt lat="45.0809" lon="0.54458">
        <ele>135.546204</ele>
        <time>2013-03-04T13:30:20Z</time>
      </trkpt>
      <trkpt lat="45.08096" lon="0.54446">
        <ele>133.632996</ele>
        <time>2013-03-04T13:30:21Z</time>
      </trkpt>
      <trkpt lat="45.081" lon="0.54438">
        <ele>132.524475</ele>
        <time>2013-03-04T13:30:22Z</time>
      </trkpt>
      <trkpt lat="45.08106" lon="0.54432">
        <ele>131.179626</ele>
        <time>2013-03-04T13:30:25Z</time>
      </trkpt>
      <trkpt lat="45.08114" lon="0.54425">
        <ele>129.75177</ele>
        <time>2013-03-04T13:30:26Z</time>
      </trkpt>
      <trkpt lat="45.08113" lon="0.54396">
        <ele>128.519653</ele>
        <time>2013-03-04T13:30:30Z</time>
      </trkpt>
      <trkpt lat="45.08112" lon="0.5439">
        <ele>128.205627</ele>
        <time>2013-03-04T13:30:33Z</time>
      </trkpt>
      <trkpt lat="45.08112" lon="0.54389">
        <ele>128.127686</ele>
        <time>2013-03-04T13:30:41Z</time>
      </trkpt>
      <trkpt lat="45.08109" lon="0.54395">
        <ele>128.796936</ele>
        <time>2013-03-04T13:30:45Z</time>
      </trkpt>
      <trkpt lat="45.08107" lon="0.54398">
        <ele>129.198425</ele>
        <time>2013-03-04T13:31:07Z</time>
      </trkpt>
    </trkseg>
  </trk>
</gpx>